KLM838 WMKK-YSSY
Flight info
| Callsign | KLM838 |
|---|---|
| Flight time | 7h 38m |
| Altitude | 35000 |
| Route | MITOS M630 BOBAG P501 ANITO B470 PKP L511 SBR W33 BLI M635 ATMAP A576 TATUK/N0489F370 A576 PKS W440 AKMIR W113 ODALE |
| Aircraft | B77W/H-SDE1E2E3FGHIJ2J3J4J5M1RWXY/LB1D1 |
Departure
| Time | 2026-04-26 06:36 |
|---|---|
| Airport | Kuala Lumpur International Airport (WMKK) |
Arrival
| Time | 2026-04-26 14:14 |
|---|---|
| Airport | Sydney Kingsford Smith International Airport (YSSY) |
| Time | Latitude | Longitude | Altitude | Speed | Heading |
|---|---|---|---|---|---|
| 2026-04-26 05:56 | 2.74772 | 101.71192 | 78 ft | 0 kts | 146° |
| 2026-04-26 06:24 | 2.74781 | 101.71186 | 68 ft | 3 kts | 147° |
| 2026-04-26 06:25 | 2.74798 | 101.71175 | 71 ft | 3 kts | 148° |
| 2026-04-26 06:25 | 2.74811 | 101.71166 | 67 ft | 1 kts | 133° |
| 2026-04-26 06:25 | 2.74817 | 101.71159 | 66 ft | 1 kts | 108° |
| 2026-04-26 06:25 | 2.74819 | 101.71144 | 69 ft | 3 kts | 92° |
| 2026-04-26 06:26 | 2.74819 | 101.71132 | 66 ft | 2 kts | 69° |
| 2026-04-26 06:26 | 2.74811 | 101.71117 | 66 ft | 2 kts | 57° |
| 2026-04-26 06:26 | 2.74805 | 101.71107 | 66 ft | 1 kts | 57° |
| 2026-04-26 06:26 | 2.74800 | 101.71100 | 66 ft | 1 kts | 57° |
| 2026-04-26 06:27 | 2.74796 | 101.71093 | 66 ft | 1 kts | 57° |
| 2026-04-26 06:27 | 2.74794 | 101.71090 | 66 ft | 0 kts | 58° |
| 2026-04-26 06:29 | 2.74806 | 101.71109 | 66 ft | 8 kts | 58° |
| 2026-04-26 06:29 | 2.74856 | 101.71130 | 68 ft | 9 kts | 349° |
| 2026-04-26 06:29 | 2.74927 | 101.71089 | 69 ft | 9 kts | 325° |
| 2026-04-26 06:30 | 2.74961 | 101.71066 | 68 ft | 9 kts | 326° |
| 2026-04-26 06:30 | 2.75012 | 101.71032 | 66 ft | 9 kts | 326° |
| 2026-04-26 06:30 | 2.75063 | 101.70997 | 70 ft | 9 kts | 326° |
| 2026-04-26 06:30 | 2.75114 | 101.70963 | 66 ft | 9 kts | 326° |
| 2026-04-26 06:31 | 2.75123 | 101.70908 | 71 ft | 9 kts | 250° |
| 2026-04-26 06:31 | 2.75091 | 101.70854 | 69 ft | 9 kts | 236° |
| 2026-04-26 06:31 | 2.75038 | 101.70775 | 69 ft | 18 kts | 236° |
| 2026-04-26 06:31 | 2.74969 | 101.70674 | 72 ft | 18 kts | 235° |
| 2026-04-26 06:32 | 2.74901 | 101.70573 | 68 ft | 18 kts | 236° |
| 2026-04-26 06:32 | 2.74832 | 101.70472 | 66 ft | 18 kts | 236° |
| 2026-04-26 06:32 | 2.74764 | 101.70371 | 66 ft | 18 kts | 236° |
| 2026-04-26 06:32 | 2.74696 | 101.70271 | 65 ft | 16 kts | 236° |
| 2026-04-26 06:33 | 2.74636 | 101.70182 | 62 ft | 15 kts | 236° |
| 2026-04-26 06:33 | 2.74579 | 101.70098 | 62 ft | 15 kts | 236° |
| 2026-04-26 06:33 | 2.74522 | 101.70013 | 60 ft | 15 kts | 236° |
| 2026-04-26 06:33 | 2.74473 | 101.69941 | 58 ft | 7 kts | 236° |
| 2026-04-26 06:34 | 2.74446 | 101.69902 | 59 ft | 7 kts | 236° |
| 2026-04-26 06:34 | 2.74419 | 101.69862 | 62 ft | 7 kts | 236° |
| 2026-04-26 06:34 | 2.74386 | 101.69815 | 59 ft | 12 kts | 233° |
| 2026-04-26 06:34 | 2.74310 | 101.69804 | 59 ft | 12 kts | 152° |
| 2026-04-26 06:35 | 2.74283 | 101.69823 | 59 ft | 0 kts | 145° |
| 2026-04-26 06:35 | 2.74149 | 101.69913 | 56 ft | 55 kts | 146° |
| 2026-04-26 06:35 | 2.73640 | 101.70255 | 55 ft | 119 kts | 146° |
| 2026-04-26 06:36 | 2.72801 | 101.70818 | 54 ft | 169 kts | 146° |
| 2026-04-26 06:36 | 2.71753 | 101.71528 | 313 ft | 186 kts | 142° |
| 2026-04-26 06:36 | 2.70651 | 101.72269 | 766 ft | 192 kts | 146° |
| 2026-04-26 06:36 | 2.69532 | 101.72991 | 1339 ft | 192 kts | 146° |
| 2026-04-26 06:37 | 2.68419 | 101.73744 | 1846 ft | 198 kts | 145° |
| 2026-04-26 06:37 | 2.67213 | 101.74561 | 2057 ft | 221 kts | 145° |
| 2026-04-26 06:37 | 2.65879 | 101.75465 | 2291 ft | 241 kts | 144° |
| 2026-04-26 06:37 | 2.64454 | 101.76427 | 2746 ft | 253 kts | 144° |
| 2026-04-26 06:38 | 2.62977 | 101.77421 | 3331 ft | 260 kts | 144° |
| 2026-04-26 06:38 | 2.61460 | 101.78438 | 3975 ft | 266 kts | 144° |
| 2026-04-26 06:38 | 2.59906 | 101.79480 | 4669 ft | 270 kts | 144° |
| 2026-04-26 06:38 | 2.58340 | 101.80531 | 5395 ft | 273 kts | 143° |
| 2026-04-26 06:39 | 2.56750 | 101.81596 | 6067 ft | 277 kts | 143° |
| 2026-04-26 06:39 | 2.55142 | 101.82674 | 6760 ft | 278 kts | 144° |
| 2026-04-26 06:39 | 2.53530 | 101.83752 | 7450 ft | 280 kts | 143° |
| 2026-04-26 06:39 | 2.51920 | 101.84863 | 8103 ft | 282 kts | 142° |
| 2026-04-26 06:40 | 2.50313 | 101.85999 | 8776 ft | 284 kts | 142° |
| 2026-04-26 06:40 | 2.48697 | 101.87147 | 9468 ft | 286 kts | 142° |
| 2026-04-26 06:40 | 2.47069 | 101.88301 | 10098 ft | 289 kts | 142° |
| 2026-04-26 06:40 | 2.45379 | 101.89499 | 10347 ft | 308 kts | 142° |
| 2026-04-26 06:41 | 2.43570 | 101.90781 | 10515 ft | 330 kts | 142° |
| 2026-04-26 06:41 | 2.41633 | 101.92152 | 10674 ft | 352 kts | 142° |
| 2026-04-26 06:41 | 2.39579 | 101.93604 | 10918 ft | 369 kts | 143° |
| 2026-04-26 06:41 | 2.37452 | 101.95104 | 11416 ft | 379 kts | 143° |
| 2026-04-26 06:42 | 2.35274 | 101.96640 | 12054 ft | 385 kts | 142° |
| 2026-04-26 06:42 | 2.33079 | 101.98189 | 12844 ft | 388 kts | 142° |
| 2026-04-26 06:42 | 2.30863 | 101.99751 | 13596 ft | 391 kts | 143° |
| 2026-04-26 06:42 | 2.28459 | 102.01059 | 14077 ft | 400 kts | 158° |
| 2026-04-26 06:43 | 2.25772 | 102.01879 | 14629 ft | 406 kts | 162° |
| 2026-04-26 06:43 | 2.23078 | 102.02626 | 15292 ft | 409 kts | 162° |
| 2026-04-26 06:43 | 2.20333 | 102.03398 | 15983 ft | 411 kts | 161° |
| 2026-04-26 06:43 | 2.17544 | 102.04209 | 16633 ft | 414 kts | 161° |
| 2026-04-26 06:44 | 2.14808 | 102.05026 | 17240 ft | 418 kts | 161° |
| 2026-04-26 06:44 | 2.12013 | 102.05873 | 17845 ft | 422 kts | 161° |
| 2026-04-26 06:44 | 2.09195 | 102.06733 | 18400 ft | 425 kts | 161° |
| 2026-04-26 06:44 | 2.06351 | 102.07602 | 18902 ft | 429 kts | 161° |
| 2026-04-26 06:45 | 2.03483 | 102.08477 | 19422 ft | 433 kts | 161° |
| 2026-04-26 06:45 | 2.00599 | 102.09360 | 19920 ft | 433 kts | 159° |
| 2026-04-26 06:45 | 1.97895 | 102.10659 | 20202 ft | 434 kts | 142° |
| 2026-04-26 06:45 | 1.95731 | 102.12741 | 20643 ft | 433 kts | 124° |
| 2026-04-26 06:46 | 1.94055 | 102.15231 | 21080 ft | 433 kts | 121° |
| 2026-04-26 06:46 | 1.92399 | 102.17767 | 21515 ft | 437 kts | 121° |
| 2026-04-26 06:46 | 1.90728 | 102.20322 | 22024 ft | 440 kts | 121° |
| 2026-04-26 06:46 | 1.89043 | 102.22882 | 22505 ft | 443 kts | 122° |
| 2026-04-26 06:47 | 1.87337 | 102.25458 | 22982 ft | 446 kts | 122° |
| 2026-04-26 06:47 | 1.85613 | 102.28049 | 23423 ft | 449 kts | 122° |
| 2026-04-26 06:47 | 1.83868 | 102.30662 | 23785 ft | 453 kts | 122° |
| 2026-04-26 06:47 | 1.82114 | 102.33284 | 24171 ft | 455 kts | 122° |
| 2026-04-26 06:48 | 1.80348 | 102.35920 | 24546 ft | 458 kts | 122° |
| 2026-04-26 06:48 | 1.78574 | 102.38568 | 24923 ft | 460 kts | 122° |
| 2026-04-26 06:48 | 1.76791 | 102.41231 | 25296 ft | 462 kts | 122° |
| 2026-04-26 06:48 | 1.74998 | 102.43908 | 25643 ft | 465 kts | 122° |
| 2026-04-26 06:49 | 1.73195 | 102.46599 | 26000 ft | 467 kts | 122° |
| 2026-04-26 06:49 | 1.71384 | 102.49304 | 26345 ft | 470 kts | 122° |
| 2026-04-26 06:49 | 1.69566 | 102.52019 | 26689 ft | 472 kts | 122° |
| 2026-04-26 06:49 | 1.67732 | 102.54757 | 27026 ft | 474 kts | 122° |
| 2026-04-26 06:50 | 1.65893 | 102.57504 | 27366 ft | 476 kts | 122° |
| 2026-04-26 06:50 | 1.64047 | 102.60260 | 27691 ft | 479 kts | 122° |
| 2026-04-26 06:50 | 1.62190 | 102.63033 | 28004 ft | 481 kts | 122° |
| 2026-04-26 06:50 | 1.60324 | 102.65819 | 28319 ft | 483 kts | 122° |
| 2026-04-26 06:51 | 1.58453 | 102.68612 | 28608 ft | 485 kts | 122° |
| 2026-04-26 06:51 | 1.54687 | 102.74234 | 29164 ft | 489 kts | 122° |
| 2026-04-26 06:51 | 1.52792 | 102.77063 | 29408 ft | 491 kts | 122° |
| 2026-04-26 06:52 | 1.50888 | 102.79906 | 29673 ft | 492 kts | 122° |
| 2026-04-26 06:52 | 1.49012 | 102.82706 | 30002 ft | 491 kts | 122° |
| 2026-04-26 06:52 | 1.47111 | 102.85543 | 30324 ft | 490 kts | 122° |
| 2026-04-26 06:52 | 1.45216 | 102.88372 | 30620 ft | 490 kts | 122° |
| 2026-04-26 06:53 | 1.43321 | 102.91200 | 30893 ft | 490 kts | 122° |
| 2026-04-26 06:53 | 1.41424 | 102.94034 | 31187 ft | 490 kts | 122° |
| 2026-04-26 06:53 | 1.39529 | 102.96862 | 31487 ft | 490 kts | 122° |
| 2026-04-26 06:53 | 1.37635 | 102.99689 | 31782 ft | 490 kts | 122° |
| 2026-04-26 06:54 | 1.35743 | 103.02520 | 32050 ft | 490 kts | 122° |
| 2026-04-26 06:54 | 1.33856 | 103.05348 | 32329 ft | 490 kts | 123° |
| 2026-04-26 06:54 | 1.31965 | 103.08184 | 32606 ft | 490 kts | 123° |
| 2026-04-26 06:54 | 1.30076 | 103.11016 | 32882 ft | 490 kts | 123° |
| 2026-04-26 06:55 | 1.28187 | 103.13849 | 33164 ft | 490 kts | 123° |
| 2026-04-26 06:55 | 1.26299 | 103.16679 | 33441 ft | 489 kts | 123° |
| 2026-04-26 06:55 | 1.24411 | 103.19509 | 33716 ft | 490 kts | 123° |
| 2026-04-26 06:55 | 1.22526 | 103.22334 | 33969 ft | 489 kts | 123° |
| 2026-04-26 06:56 | 1.20639 | 103.25162 | 34242 ft | 488 kts | 123° |
| 2026-04-26 06:56 | 1.18757 | 103.27983 | 34498 ft | 487 kts | 123° |
| 2026-04-26 06:56 | 1.16879 | 103.30797 | 34742 ft | 487 kts | 123° |
| 2026-04-26 06:56 | 1.14996 | 103.33619 | 34773 ft | 490 kts | 123° |
| 2026-04-26 06:57 | 1.11206 | 103.39299 | 34842 ft | 492 kts | 123° |
| 2026-04-26 06:57 | 1.07408 | 103.44991 | 34834 ft | 492 kts | 123° |
| 2026-04-26 06:58 | 1.03485 | 103.50537 | 34829 ft | 486 kts | 129° |
| 2026-04-26 06:58 | 0.98854 | 103.55437 | 34846 ft | 485 kts | 134° |
| 2026-04-26 06:59 | 0.94122 | 103.60242 | 34846 ft | 485 kts | 134° |
| 2026-04-26 06:59 | 0.89410 | 103.65075 | 34847 ft | 486 kts | 133° |
| 2026-04-26 07:00 | 0.84738 | 103.69902 | 34840 ft | 487 kts | 133° |
| 2026-04-26 07:00 | 0.80029 | 103.74772 | 34846 ft | 488 kts | 133° |
| 2026-04-26 07:01 | 0.75310 | 103.79651 | 34849 ft | 489 kts | 133° |
| 2026-04-26 07:01 | 0.70582 | 103.84538 | 34847 ft | 489 kts | 133° |
| 2026-04-26 07:02 | 0.65846 | 103.89432 | 34849 ft | 490 kts | 133° |
| 2026-04-26 07:02 | 0.61108 | 103.94329 | 34850 ft | 490 kts | 133° |
| 2026-04-26 07:03 | 0.56375 | 103.99220 | 34851 ft | 490 kts | 133° |
| 2026-04-26 07:03 | 0.51636 | 104.04109 | 34855 ft | 489 kts | 133° |
| 2026-04-26 07:04 | 0.46899 | 104.08991 | 34854 ft | 489 kts | 133° |
| 2026-04-26 07:04 | 0.42166 | 104.13873 | 34856 ft | 489 kts | 133° |
| 2026-04-26 07:05 | 0.37436 | 104.18754 | 34858 ft | 489 kts | 133° |
| 2026-04-26 07:05 | 0.32706 | 104.23633 | 34857 ft | 489 kts | 133° |
| 2026-04-26 07:06 | 0.27978 | 104.28517 | 34858 ft | 489 kts | 133° |
| 2026-04-26 07:06 | 0.23259 | 104.33395 | 34857 ft | 489 kts | 133° |
| 2026-04-26 07:07 | 0.18535 | 104.38279 | 34858 ft | 489 kts | 133° |
| 2026-04-26 07:07 | 0.13811 | 104.43162 | 34857 ft | 489 kts | 133° |
| 2026-04-26 07:08 | 0.09086 | 104.48047 | 34850 ft | 489 kts | 133° |
| 2026-04-26 07:08 | 0.04358 | 104.52935 | 34854 ft | 489 kts | 133° |
| 2026-04-26 07:09 | -0.00346 | 104.57797 | 34856 ft | 490 kts | 133° |
| 2026-04-26 07:09 | -0.05085 | 104.62696 | 34851 ft | 491 kts | 133° |
| 2026-04-26 07:11 | -0.16953 | 104.74966 | 34847 ft | 491 kts | 133° |
| 2026-04-26 07:11 | -0.21698 | 104.79872 | 34851 ft | 491 kts | 133° |
| 2026-04-26 07:12 | -0.26450 | 104.84775 | 34848 ft | 491 kts | 134° |
| 2026-04-26 07:12 | -0.31703 | 104.89133 | 34851 ft | 492 kts | 145° |
| 2026-04-26 07:13 | -0.37395 | 104.92932 | 34849 ft | 492 kts | 145° |
| 2026-04-26 07:13 | -0.43099 | 104.96723 | 34850 ft | 493 kts | 145° |
| 2026-04-26 07:14 | -0.48785 | 105.00544 | 34849 ft | 493 kts | 145° |
| 2026-04-26 07:14 | -0.54467 | 105.04385 | 34849 ft | 493 kts | 145° |
| 2026-04-26 07:15 | -0.60142 | 105.08228 | 34847 ft | 493 kts | 145° |
| 2026-04-26 07:15 | -0.65824 | 105.12073 | 34849 ft | 493 kts | 145° |
| 2026-04-26 07:16 | -0.71494 | 105.15909 | 34847 ft | 492 kts | 145° |
| 2026-04-26 07:16 | -0.76202 | 105.19093 | 34845 ft | 492 kts | 145° |
| 2026-04-26 07:17 | -0.81864 | 105.22923 | 34847 ft | 491 kts | 145° |
| 2026-04-26 07:17 | -0.87515 | 105.26746 | 34846 ft | 490 kts | 145° |
| 2026-04-26 07:18 | -0.93165 | 105.30568 | 34844 ft | 490 kts | 145° |
| 2026-04-26 07:18 | -0.98804 | 105.34383 | 34845 ft | 489 kts | 145° |
| 2026-04-26 07:19 | -1.04439 | 105.38196 | 34844 ft | 489 kts | 145° |
| 2026-04-26 07:19 | -1.10071 | 105.42006 | 34844 ft | 489 kts | 145° |
| 2026-04-26 07:20 | -1.15702 | 105.45817 | 34843 ft | 489 kts | 145° |
| 2026-04-26 07:20 | -1.21335 | 105.49628 | 34847 ft | 489 kts | 145° |
| 2026-04-26 07:21 | -1.26964 | 105.53437 | 34839 ft | 489 kts | 145° |
| 2026-04-26 07:21 | -1.32593 | 105.57247 | 34841 ft | 489 kts | 145° |
| 2026-04-26 07:22 | -1.38227 | 105.61059 | 34840 ft | 489 kts | 145° |
| 2026-04-26 07:22 | -1.43823 | 105.64847 | 34838 ft | 489 kts | 145° |
| 2026-04-26 07:23 | -1.49462 | 105.68664 | 34840 ft | 490 kts | 145° |
| 2026-04-26 07:23 | -1.55100 | 105.72480 | 34838 ft | 490 kts | 145° |
| 2026-04-26 07:24 | -1.60745 | 105.76301 | 34835 ft | 490 kts | 145° |
| 2026-04-26 07:24 | -1.66387 | 105.80122 | 34834 ft | 490 kts | 145° |
| 2026-04-26 07:25 | -1.72031 | 105.83942 | 34838 ft | 490 kts | 145° |
| 2026-04-26 07:25 | -1.77677 | 105.87764 | 34831 ft | 490 kts | 145° |
| 2026-04-26 07:26 | -1.83323 | 105.91588 | 34836 ft | 490 kts | 145° |
| 2026-04-26 07:26 | -1.88965 | 105.95409 | 34832 ft | 490 kts | 145° |
| 2026-04-26 07:27 | -1.94610 | 105.99232 | 34830 ft | 490 kts | 145° |
| 2026-04-26 07:27 | -2.00241 | 106.03047 | 34833 ft | 490 kts | 145° |
| 2026-04-26 07:28 | -2.05882 | 106.06869 | 34832 ft | 490 kts | 145° |
| 2026-04-26 07:28 | -2.11524 | 106.10691 | 34822 ft | 490 kts | 145° |
| 2026-04-26 07:29 | -2.16822 | 106.14866 | 34834 ft | 488 kts | 135° |
| 2026-04-26 07:29 | -2.21343 | 106.19966 | 34834 ft | 487 kts | 127° |
| 2026-04-26 07:30 | -2.25457 | 106.25298 | 34824 ft | 487 kts | 127° |
| 2026-04-26 07:30 | -2.29598 | 106.30665 | 34825 ft | 488 kts | 127° |
| 2026-04-26 07:31 | -2.33766 | 106.36020 | 34822 ft | 488 kts | 127° |
| 2026-04-26 07:31 | -2.37942 | 106.41361 | 34826 ft | 488 kts | 127° |
| 2026-04-26 07:32 | -2.42124 | 106.46706 | 34829 ft | 488 kts | 127° |
| 2026-04-26 07:32 | -2.46301 | 106.52048 | 34825 ft | 488 kts | 127° |
| 2026-04-26 07:33 | -2.50479 | 106.57393 | 34828 ft | 488 kts | 127° |
| 2026-04-26 07:33 | -2.54654 | 106.62736 | 34833 ft | 488 kts | 127° |
| 2026-04-26 07:34 | -2.58831 | 106.68082 | 34829 ft | 488 kts | 127° |
| 2026-04-26 07:34 | -2.63009 | 106.73428 | 34825 ft | 488 kts | 127° |
| 2026-04-26 07:35 | -2.67186 | 106.78777 | 34825 ft | 487 kts | 127° |
| 2026-04-26 07:35 | -2.71357 | 106.84116 | 34824 ft | 487 kts | 127° |
| 2026-04-26 07:36 | -2.75529 | 106.89458 | 34823 ft | 487 kts | 127° |
| 2026-04-26 07:36 | -2.79669 | 106.94760 | 34822 ft | 487 kts | 127° |
| 2026-04-26 07:37 | -2.83836 | 107.00096 | 34821 ft | 487 kts | 127° |
| 2026-04-26 07:37 | -2.88028 | 107.05467 | 34825 ft | 487 kts | 127° |
| 2026-04-26 07:38 | -2.92169 | 107.10771 | 34824 ft | 487 kts | 127° |
| 2026-04-26 07:38 | -2.96335 | 107.16110 | 34826 ft | 487 kts | 127° |
| 2026-04-26 07:39 | -3.00507 | 107.21455 | 34822 ft | 487 kts | 127° |
| 2026-04-26 07:39 | -3.04675 | 107.26797 | 34822 ft | 487 kts | 127° |
| 2026-04-26 07:40 | -3.08845 | 107.32143 | 34825 ft | 487 kts | 127° |
| 2026-04-26 07:40 | -3.13016 | 107.37490 | 34823 ft | 487 kts | 127° |
| 2026-04-26 07:41 | -3.17186 | 107.42837 | 34826 ft | 487 kts | 127° |
| 2026-04-26 07:41 | -3.21358 | 107.48187 | 34827 ft | 487 kts | 127° |
| 2026-04-26 07:42 | -3.25526 | 107.53534 | 34829 ft | 487 kts | 127° |
| 2026-04-26 07:42 | -3.29698 | 107.58887 | 34828 ft | 487 kts | 127° |
| 2026-04-26 07:43 | -3.33872 | 107.64233 | 34825 ft | 487 kts | 127° |
| 2026-04-26 07:43 | -3.38075 | 107.69558 | 34828 ft | 487 kts | 127° |
| 2026-04-26 07:44 | -3.42283 | 107.74878 | 34828 ft | 487 kts | 127° |
| 2026-04-26 07:44 | -3.46484 | 107.80196 | 34828 ft | 487 kts | 127° |
| 2026-04-26 07:45 | -3.50689 | 107.85528 | 34828 ft | 487 kts | 127° |
| 2026-04-26 07:45 | -3.54862 | 107.90821 | 34828 ft | 488 kts | 127° |
| 2026-04-26 07:46 | -3.59061 | 107.96147 | 34829 ft | 488 kts | 127° |
| 2026-04-26 07:46 | -3.63266 | 108.01482 | 34829 ft | 488 kts | 127° |
| 2026-04-26 07:47 | -3.67468 | 108.06813 | 34827 ft | 488 kts | 127° |
| 2026-04-26 07:47 | -3.71673 | 108.12150 | 34827 ft | 488 kts | 128° |
| 2026-04-26 07:48 | -3.75878 | 108.17487 | 34826 ft | 488 kts | 128° |
| 2026-04-26 07:48 | -3.80085 | 108.22827 | 34827 ft | 488 kts | 128° |
| 2026-04-26 07:49 | -3.84292 | 108.28169 | 34827 ft | 488 kts | 128° |
| 2026-04-26 07:49 | -3.88498 | 108.33511 | 34829 ft | 489 kts | 127° |
| 2026-04-26 07:50 | -3.94812 | 108.41531 | 34826 ft | 489 kts | 127° |
| 2026-04-26 07:50 | -3.99019 | 108.46876 | 34827 ft | 489 kts | 127° |
| 2026-04-26 07:51 | -4.03230 | 108.52227 | 34829 ft | 489 kts | 127° |
| 2026-04-26 07:51 | -4.07439 | 108.57577 | 34829 ft | 489 kts | 127° |
| 2026-04-26 07:52 | -4.11650 | 108.62930 | 34830 ft | 489 kts | 127° |
| 2026-04-26 07:52 | -4.15862 | 108.68286 | 34831 ft | 489 kts | 127° |
| 2026-04-26 07:53 | -4.20076 | 108.73644 | 34831 ft | 490 kts | 127° |
| 2026-04-26 07:53 | -4.24262 | 108.78968 | 34831 ft | 490 kts | 127° |
| 2026-04-26 07:54 | -4.28477 | 108.84331 | 34828 ft | 490 kts | 127° |
| 2026-04-26 07:54 | -4.32693 | 108.89695 | 34831 ft | 490 kts | 127° |
| 2026-04-26 07:55 | -4.36912 | 108.95065 | 34828 ft | 490 kts | 127° |
| 2026-04-26 07:55 | -4.41130 | 109.00435 | 34828 ft | 490 kts | 127° |
| 2026-04-26 07:56 | -4.45344 | 109.05800 | 34827 ft | 491 kts | 127° |
| 2026-04-26 07:56 | -4.49570 | 109.11182 | 34827 ft | 491 kts | 127° |
| 2026-04-26 07:57 | -4.53794 | 109.16563 | 34830 ft | 491 kts | 127° |
| 2026-04-26 07:57 | -4.58023 | 109.21950 | 34828 ft | 492 kts | 127° |
| 2026-04-26 07:58 | -4.62249 | 109.27335 | 34831 ft | 492 kts | 127° |
| 2026-04-26 07:58 | -4.66481 | 109.32729 | 34829 ft | 492 kts | 127° |
| 2026-04-26 07:59 | -4.70715 | 109.38128 | 34828 ft | 492 kts | 127° |
| 2026-04-26 07:59 | -4.74919 | 109.43488 | 34828 ft | 492 kts | 127° |
| 2026-04-26 08:00 | -4.79152 | 109.48887 | 34825 ft | 492 kts | 127° |
| 2026-04-26 08:00 | -4.83384 | 109.54286 | 34830 ft | 492 kts | 127° |
| 2026-04-26 08:01 | -4.87614 | 109.59684 | 34835 ft | 492 kts | 127° |
| 2026-04-26 08:01 | -4.91843 | 109.65081 | 34830 ft | 492 kts | 127° |
| 2026-04-26 08:02 | -4.96076 | 109.70485 | 34827 ft | 492 kts | 127° |
| 2026-04-26 08:02 | -5.00298 | 109.75876 | 34827 ft | 491 kts | 127° |
| 2026-04-26 08:03 | -5.04522 | 109.81270 | 34827 ft | 491 kts | 127° |
| 2026-04-26 08:03 | -5.08733 | 109.86651 | 34825 ft | 490 kts | 127° |
| 2026-04-26 08:04 | -5.12938 | 109.92023 | 34825 ft | 489 kts | 127° |
| 2026-04-26 08:04 | -5.17138 | 109.97391 | 34823 ft | 489 kts | 127° |
| 2026-04-26 08:05 | -5.21329 | 110.02750 | 34822 ft | 488 kts | 127° |
| 2026-04-26 08:05 | -5.25515 | 110.08103 | 34824 ft | 488 kts | 127° |
| 2026-04-26 08:06 | -5.29705 | 110.13461 | 34825 ft | 488 kts | 127° |
| 2026-04-26 08:06 | -5.33891 | 110.18817 | 34825 ft | 488 kts | 127° |
| 2026-04-26 08:07 | -5.37373 | 110.23275 | 34821 ft | 488 kts | 127° |
| 2026-04-26 08:07 | -5.41566 | 110.28642 | 34821 ft | 489 kts | 127° |
| 2026-04-26 08:08 | -5.45764 | 110.34018 | 34821 ft | 489 kts | 127° |
| 2026-04-26 08:08 | -5.49976 | 110.39391 | 34821 ft | 490 kts | 127° |
| 2026-04-26 08:09 | -5.54224 | 110.44738 | 34821 ft | 490 kts | 127° |
| 2026-04-26 08:09 | -5.58480 | 110.50088 | 34820 ft | 490 kts | 127° |
| 2026-04-26 08:10 | -5.62736 | 110.55448 | 34820 ft | 491 kts | 127° |
| 2026-04-26 08:10 | -5.66986 | 110.60808 | 34820 ft | 491 kts | 127° |
| 2026-04-26 08:11 | -5.71232 | 110.66168 | 34815 ft | 491 kts | 127° |
| 2026-04-26 08:11 | -5.75482 | 110.71532 | 34814 ft | 490 kts | 127° |
| 2026-04-26 08:12 | -5.79728 | 110.76894 | 34817 ft | 490 kts | 127° |
| 2026-04-26 08:12 | -5.83941 | 110.82215 | 34817 ft | 490 kts | 127° |
| 2026-04-26 08:13 | -5.88184 | 110.87575 | 34816 ft | 490 kts | 127° |
| 2026-04-26 08:13 | -5.92424 | 110.92932 | 34816 ft | 490 kts | 127° |
| 2026-04-26 08:14 | -5.96659 | 110.98286 | 34816 ft | 489 kts | 127° |
| 2026-04-26 08:14 | -6.00892 | 111.03638 | 34815 ft | 489 kts | 127° |
| 2026-04-26 08:15 | -6.05126 | 111.08993 | 34814 ft | 489 kts | 127° |
| 2026-04-26 08:15 | -6.09356 | 111.14343 | 34813 ft | 489 kts | 127° |
| 2026-04-26 08:16 | -6.13583 | 111.19692 | 34813 ft | 489 kts | 127° |
| 2026-04-26 08:16 | -6.17807 | 111.25039 | 34813 ft | 488 kts | 127° |
| 2026-04-26 08:17 | -6.22030 | 111.30385 | 34809 ft | 488 kts | 127° |
| 2026-04-26 08:17 | -6.26247 | 111.35726 | 34811 ft | 487 kts | 127° |
| 2026-04-26 08:18 | -6.30459 | 111.41062 | 34810 ft | 487 kts | 127° |
| 2026-04-26 08:18 | -6.34666 | 111.46393 | 34810 ft | 487 kts | 127° |
| 2026-04-26 08:19 | -6.38871 | 111.51723 | 34811 ft | 486 kts | 127° |
| 2026-04-26 08:19 | -6.43073 | 111.57052 | 34809 ft | 486 kts | 127° |
| 2026-04-26 08:20 | -6.47272 | 111.62377 | 34807 ft | 486 kts | 127° |
| 2026-04-26 08:20 | -6.51470 | 111.67703 | 34808 ft | 486 kts | 127° |
| 2026-04-26 08:21 | -6.55638 | 111.72993 | 34808 ft | 486 kts | 127° |
| 2026-04-26 08:21 | -6.59837 | 111.78323 | 34808 ft | 486 kts | 127° |
| 2026-04-26 08:22 | -6.64038 | 111.83658 | 34809 ft | 486 kts | 127° |
| 2026-04-26 08:22 | -6.68238 | 111.88993 | 34808 ft | 486 kts | 127° |
| 2026-04-26 08:23 | -6.72437 | 111.94328 | 34804 ft | 486 kts | 127° |
| 2026-04-26 08:23 | -6.76635 | 111.99665 | 34804 ft | 486 kts | 127° |
| 2026-04-26 08:24 | -6.80834 | 112.05003 | 34807 ft | 486 kts | 127° |
| 2026-04-26 08:24 | -6.85031 | 112.10342 | 34806 ft | 486 kts | 127° |
| 2026-04-26 08:25 | -6.89229 | 112.15682 | 34804 ft | 486 kts | 127° |
| 2026-04-26 08:25 | -6.93424 | 112.21021 | 34805 ft | 487 kts | 127° |
| 2026-04-26 08:26 | -6.97623 | 112.26366 | 34801 ft | 487 kts | 127° |
| 2026-04-26 08:26 | -7.01822 | 112.31715 | 34799 ft | 487 kts | 127° |
| 2026-04-26 08:27 | -7.06021 | 112.37064 | 34801 ft | 487 kts | 127° |
| 2026-04-26 08:27 | -7.10218 | 112.42412 | 34799 ft | 487 kts | 127° |
| 2026-04-26 08:28 | -7.14421 | 112.47770 | 34801 ft | 487 kts | 127° |
| 2026-04-26 08:28 | -7.18620 | 112.53124 | 34800 ft | 487 kts | 127° |
| 2026-04-26 08:29 | -7.22789 | 112.58443 | 34800 ft | 487 kts | 127° |
| 2026-04-26 08:29 | -7.26987 | 112.63800 | 34801 ft | 487 kts | 127° |
| 2026-04-26 08:30 | -7.31185 | 112.69159 | 34802 ft | 487 kts | 127° |
| 2026-04-26 08:30 | -7.35377 | 112.74513 | 34802 ft | 487 kts | 127° |
| 2026-04-26 08:31 | -7.39245 | 112.80105 | 34802 ft | 486 kts | 120° |
| 2026-04-26 08:31 | -7.42614 | 112.86003 | 34803 ft | 486 kts | 119° |
| 2026-04-26 08:32 | -7.45968 | 112.91913 | 34802 ft | 486 kts | 119° |
| 2026-04-26 08:32 | -7.49352 | 112.97816 | 34805 ft | 486 kts | 119° |
| 2026-04-26 08:33 | -7.52749 | 113.03711 | 34812 ft | 486 kts | 120° |
| 2026-04-26 08:33 | -7.56149 | 113.09606 | 34812 ft | 487 kts | 120° |
| 2026-04-26 08:34 | -7.59547 | 113.15504 | 34817 ft | 487 kts | 120° |
| 2026-04-26 08:34 | -7.62947 | 113.21409 | 34822 ft | 487 kts | 120° |
| 2026-04-26 08:35 | -7.66340 | 113.27307 | 34827 ft | 487 kts | 120° |
| 2026-04-26 08:35 | -7.69737 | 113.33213 | 34830 ft | 487 kts | 120° |
| 2026-04-26 08:36 | -7.73133 | 113.39119 | 34835 ft | 487 kts | 120° |
| 2026-04-26 08:36 | -7.76528 | 113.45024 | 34840 ft | 487 kts | 120° |
| 2026-04-26 08:37 | -7.79921 | 113.50930 | 34847 ft | 487 kts | 120° |
| 2026-04-26 08:37 | -7.83316 | 113.56842 | 34850 ft | 487 kts | 120° |
| 2026-04-26 08:38 | -7.86713 | 113.62760 | 34842 ft | 489 kts | 119° |
| 2026-04-26 08:38 | -7.90112 | 113.68684 | 34855 ft | 488 kts | 119° |
| 2026-04-26 08:39 | -7.93511 | 113.74609 | 34863 ft | 488 kts | 119° |
| 2026-04-26 08:39 | -7.96884 | 113.80494 | 34859 ft | 488 kts | 119° |
| 2026-04-26 08:40 | -8.00277 | 113.86414 | 34867 ft | 487 kts | 119° |
| 2026-04-26 08:40 | -8.03670 | 113.92326 | 34867 ft | 487 kts | 120° |
| 2026-04-26 08:41 | -8.07086 | 113.98225 | 34872 ft | 487 kts | 120° |
| 2026-04-26 08:41 | -8.10526 | 114.04159 | 34867 ft | 486 kts | 120° |
| 2026-04-26 08:42 | -8.13937 | 114.10055 | 34876 ft | 487 kts | 120° |
| 2026-04-26 08:42 | -8.17326 | 114.15920 | 34862 ft | 487 kts | 120° |
| 2026-04-26 08:43 | -8.20742 | 114.21834 | 34860 ft | 488 kts | 120° |
| 2026-04-26 08:43 | -8.24157 | 114.27750 | 34856 ft | 488 kts | 120° |
| 2026-04-26 08:44 | -8.27572 | 114.33667 | 34855 ft | 488 kts | 120° |
| 2026-04-26 08:44 | -8.30990 | 114.39593 | 34844 ft | 488 kts | 120° |
| 2026-04-26 08:45 | -8.34407 | 114.45518 | 34837 ft | 488 kts | 120° |
| 2026-04-26 08:45 | -8.37822 | 114.51444 | 34837 ft | 488 kts | 120° |
| 2026-04-26 08:46 | -8.41233 | 114.57365 | 34836 ft | 488 kts | 120° |
| 2026-04-26 08:46 | -8.44644 | 114.63289 | 34834 ft | 488 kts | 120° |
| 2026-04-26 08:47 | -8.48055 | 114.69215 | 34837 ft | 488 kts | 120° |
| 2026-04-26 08:47 | -8.51465 | 114.75140 | 34839 ft | 488 kts | 120° |
| 2026-04-26 08:48 | -8.54872 | 114.81066 | 34844 ft | 488 kts | 120° |
| 2026-04-26 08:48 | -8.58284 | 114.87001 | 34839 ft | 488 kts | 120° |
| 2026-04-26 08:49 | -8.61691 | 114.92931 | 34837 ft | 488 kts | 120° |
| 2026-04-26 08:49 | -8.65101 | 114.98870 | 34833 ft | 488 kts | 120° |
| 2026-04-26 08:50 | -8.68509 | 115.04807 | 34831 ft | 489 kts | 120° |
| 2026-04-26 08:50 | -8.71920 | 115.10752 | 34830 ft | 489 kts | 120° |
| 2026-04-26 08:51 | -8.77934 | 115.19041 | 34833 ft | 489 kts | 134° |
| 2026-04-26 08:52 | -8.82904 | 115.23745 | 34837 ft | 489 kts | 137° |
| 2026-04-26 08:52 | -8.87931 | 115.28385 | 34825 ft | 490 kts | 137° |
| 2026-04-26 08:53 | -8.92945 | 115.33051 | 34825 ft | 490 kts | 136° |
| 2026-04-26 08:53 | -8.97910 | 115.37708 | 34830 ft | 490 kts | 136° |
| 2026-04-26 08:54 | -9.02910 | 115.42412 | 34834 ft | 491 kts | 136° |
| 2026-04-26 08:54 | -9.07920 | 115.47128 | 34833 ft | 492 kts | 136° |
| 2026-04-26 08:55 | -9.12936 | 115.51848 | 34833 ft | 493 kts | 136° |
| 2026-04-26 08:55 | -9.17143 | 115.55808 | 34832 ft | 493 kts | 136° |
| 2026-04-26 08:56 | -9.22166 | 115.60537 | 34832 ft | 493 kts | 136° |
| 2026-04-26 08:56 | -9.27158 | 115.65240 | 34836 ft | 494 kts | 136° |
| 2026-04-26 08:57 | -9.32188 | 115.69979 | 34835 ft | 494 kts | 136° |
| 2026-04-26 08:57 | -9.37223 | 115.74725 | 34834 ft | 494 kts | 136° |
| 2026-04-26 08:58 | -9.42254 | 115.79472 | 34836 ft | 494 kts | 136° |
| 2026-04-26 08:58 | -9.47286 | 115.84220 | 34834 ft | 494 kts | 136° |
| 2026-04-26 08:59 | -9.52317 | 115.88969 | 34836 ft | 494 kts | 136° |
| 2026-04-26 08:59 | -9.57346 | 115.93717 | 34837 ft | 494 kts | 136° |
| 2026-04-26 09:00 | -9.62367 | 115.98460 | 34840 ft | 494 kts | 136° |
| 2026-04-26 09:00 | -9.67389 | 116.03208 | 34838 ft | 493 kts | 136° |
| 2026-04-26 09:01 | -9.72410 | 116.07954 | 34838 ft | 493 kts | 136° |
| 2026-04-26 09:01 | -9.77426 | 116.12699 | 34845 ft | 493 kts | 136° |
| 2026-04-26 09:02 | -9.82443 | 116.17448 | 34838 ft | 493 kts | 136° |
| 2026-04-26 09:02 | -9.87457 | 116.22196 | 34840 ft | 493 kts | 136° |
| 2026-04-26 09:03 | -9.92470 | 116.26944 | 34842 ft | 493 kts | 136° |
| 2026-04-26 09:03 | -9.97477 | 116.31688 | 34842 ft | 492 kts | 136° |
| 2026-04-26 09:04 | -10.02476 | 116.36428 | 34843 ft | 491 kts | 136° |
| 2026-04-26 09:04 | -10.07467 | 116.41161 | 34843 ft | 490 kts | 136° |
| 2026-04-26 09:05 | -10.12443 | 116.45883 | 34842 ft | 489 kts | 136° |
| 2026-04-26 09:05 | -10.17408 | 116.50595 | 34845 ft | 488 kts | 136° |
| 2026-04-26 09:06 | -10.22366 | 116.55305 | 34846 ft | 488 kts | 136° |
| 2026-04-26 09:06 | -10.27321 | 116.60013 | 34846 ft | 488 kts | 136° |
| 2026-04-26 09:07 | -10.32239 | 116.64687 | 34847 ft | 487 kts | 136° |
| 2026-04-26 09:07 | -10.37184 | 116.69390 | 34848 ft | 487 kts | 136° |
| 2026-04-26 09:08 | -10.42123 | 116.74089 | 34849 ft | 486 kts | 136° |
| 2026-04-26 09:08 | -10.47059 | 116.78788 | 34851 ft | 486 kts | 136° |
| 2026-04-26 09:09 | -10.51994 | 116.83489 | 34852 ft | 486 kts | 136° |
| 2026-04-26 09:09 | -10.56934 | 116.88194 | 34854 ft | 487 kts | 136° |
| 2026-04-26 09:10 | -10.61880 | 116.92907 | 34849 ft | 488 kts | 136° |
| 2026-04-26 09:10 | -10.66838 | 116.97637 | 34857 ft | 489 kts | 136° |
| 2026-04-26 09:11 | -10.71810 | 117.02381 | 34856 ft | 491 kts | 136° |
| 2026-04-26 09:11 | -10.76792 | 117.07136 | 34857 ft | 492 kts | 136° |
| 2026-04-26 09:12 | -10.81785 | 117.11903 | 34858 ft | 493 kts | 136° |
| 2026-04-26 09:12 | -10.86782 | 117.16678 | 34854 ft | 493 kts | 136° |
| 2026-04-26 09:13 | -10.91788 | 117.21464 | 34859 ft | 494 kts | 136° |
| 2026-04-26 09:13 | -10.96795 | 117.26252 | 34858 ft | 494 kts | 136° |
| 2026-04-26 09:14 | -11.01812 | 117.31052 | 34857 ft | 495 kts | 136° |
| 2026-04-26 09:14 | -11.06828 | 117.35852 | 34863 ft | 495 kts | 136° |
| 2026-04-26 09:15 | -11.11812 | 117.40627 | 34857 ft | 495 kts | 136° |
| 2026-04-26 09:15 | -11.16825 | 117.45432 | 34860 ft | 495 kts | 136° |
| 2026-04-26 09:16 | -11.21840 | 117.50241 | 34859 ft | 495 kts | 136° |
| 2026-04-26 09:16 | -11.26850 | 117.55046 | 34860 ft | 495 kts | 136° |
| 2026-04-26 09:17 | -11.31856 | 117.59849 | 34860 ft | 494 kts | 136° |
| 2026-04-26 09:17 | -11.36857 | 117.64652 | 34860 ft | 494 kts | 136° |
| 2026-04-26 09:18 | -11.41850 | 117.69448 | 34861 ft | 493 kts | 136° |
| 2026-04-26 09:18 | -11.46845 | 117.74249 | 34862 ft | 493 kts | 136° |
| 2026-04-26 09:19 | -11.51835 | 117.79048 | 34864 ft | 493 kts | 136° |
| 2026-04-26 09:19 | -11.56827 | 117.83850 | 34865 ft | 493 kts | 136° |
| 2026-04-26 09:20 | -11.61820 | 117.88657 | 34867 ft | 494 kts | 136° |
| 2026-04-26 09:20 | -11.66814 | 117.93467 | 34869 ft | 494 kts | 136° |
| 2026-04-26 09:21 | -11.71810 | 117.98282 | 34869 ft | 494 kts | 136° |
| 2026-04-26 09:21 | -11.76811 | 118.03103 | 34869 ft | 495 kts | 136° |
| 2026-04-26 09:22 | -11.81815 | 118.07930 | 34868 ft | 495 kts | 136° |
| 2026-04-26 09:22 | -11.86788 | 118.12732 | 34868 ft | 496 kts | 136° |
| 2026-04-26 09:23 | -11.91799 | 118.17571 | 34870 ft | 496 kts | 136° |
| 2026-04-26 09:23 | -11.96813 | 118.22416 | 34872 ft | 496 kts | 136° |
| 2026-04-26 09:24 | -12.01826 | 118.27262 | 34873 ft | 497 kts | 136° |
| 2026-04-26 09:24 | -12.06845 | 118.32113 | 34873 ft | 497 kts | 136° |
| 2026-04-26 09:25 | -12.11872 | 118.36974 | 34873 ft | 498 kts | 136° |
| 2026-04-26 09:25 | -12.16896 | 118.41837 | 34877 ft | 498 kts | 136° |
| 2026-04-26 09:26 | -12.21926 | 118.46709 | 34879 ft | 498 kts | 136° |
| 2026-04-26 09:26 | -12.26956 | 118.51584 | 34877 ft | 498 kts | 136° |
| 2026-04-26 09:27 | -12.31985 | 118.56461 | 34878 ft | 498 kts | 136° |
| 2026-04-26 09:27 | -12.37012 | 118.61338 | 34877 ft | 498 kts | 136° |
| 2026-04-26 09:28 | -12.42032 | 118.66211 | 34875 ft | 498 kts | 137° |
| 2026-04-26 09:28 | -12.47061 | 118.71095 | 34878 ft | 498 kts | 137° |
| 2026-04-26 09:29 | -12.52084 | 118.75977 | 34883 ft | 498 kts | 137° |
| 2026-04-26 09:29 | -12.57109 | 118.80863 | 34880 ft | 498 kts | 137° |
| 2026-04-26 09:30 | -12.62136 | 118.85754 | 34881 ft | 498 kts | 137° |
| 2026-04-26 09:30 | -12.67123 | 118.90609 | 34884 ft | 498 kts | 136° |
| 2026-04-26 09:31 | -12.72149 | 118.95504 | 34885 ft | 498 kts | 136° |
| 2026-04-26 09:31 | -12.77171 | 119.00399 | 34884 ft | 499 kts | 137° |
| 2026-04-26 09:32 | -12.82195 | 119.05298 | 34886 ft | 499 kts | 137° |
| 2026-04-26 09:32 | -12.87223 | 119.10203 | 34888 ft | 499 kts | 137° |
| 2026-04-26 09:33 | -12.92246 | 119.15108 | 34886 ft | 499 kts | 137° |
| 2026-04-26 09:33 | -12.97268 | 119.20013 | 34887 ft | 499 kts | 137° |
| 2026-04-26 09:34 | -13.02292 | 119.24925 | 34886 ft | 499 kts | 137° |
| 2026-04-26 09:34 | -13.07310 | 119.29832 | 34889 ft | 499 kts | 137° |
| 2026-04-26 09:35 | -13.12331 | 119.34745 | 34892 ft | 499 kts | 137° |
| 2026-04-26 09:35 | -13.17349 | 119.39659 | 34892 ft | 499 kts | 137° |
| 2026-04-26 09:36 | -13.22365 | 119.44574 | 34893 ft | 499 kts | 137° |
| 2026-04-26 09:36 | -13.27383 | 119.49493 | 34894 ft | 499 kts | 137° |
| 2026-04-26 09:37 | -13.32404 | 119.54419 | 34893 ft | 499 kts | 137° |
| 2026-04-26 09:37 | -13.37426 | 119.59347 | 34896 ft | 500 kts | 137° |
| 2026-04-26 09:38 | -13.42452 | 119.64283 | 34898 ft | 500 kts | 137° |
| 2026-04-26 09:38 | -13.47479 | 119.69224 | 34900 ft | 500 kts | 137° |
| 2026-04-26 09:39 | -13.52511 | 119.74171 | 34899 ft | 501 kts | 137° |
| 2026-04-26 09:39 | -13.57543 | 119.79123 | 34900 ft | 501 kts | 137° |
| 2026-04-26 09:40 | -13.62577 | 119.84080 | 34904 ft | 501 kts | 137° |
| 2026-04-26 09:40 | -13.67612 | 119.89039 | 34901 ft | 501 kts | 137° |
| 2026-04-26 09:41 | -13.72648 | 119.94003 | 34902 ft | 502 kts | 137° |
| 2026-04-26 09:41 | -13.77690 | 119.98977 | 34906 ft | 502 kts | 137° |
| 2026-04-26 09:42 | -13.82703 | 120.03925 | 34904 ft | 503 kts | 137° |
| 2026-04-26 09:42 | -13.87749 | 120.08909 | 34907 ft | 503 kts | 137° |
| 2026-04-26 09:43 | -13.92801 | 120.13903 | 34908 ft | 503 kts | 137° |
| 2026-04-26 09:43 | -13.97848 | 120.18892 | 34909 ft | 503 kts | 137° |
| 2026-04-26 09:44 | -14.02078 | 120.23078 | 34906 ft | 503 kts | 137° |
| 2026-04-26 09:44 | -14.07092 | 120.28044 | 34910 ft | 503 kts | 137° |
| 2026-04-26 09:45 | -14.12140 | 120.33046 | 34909 ft | 503 kts | 137° |
| 2026-04-26 09:45 | -14.17180 | 120.38041 | 34909 ft | 502 kts | 137° |
| 2026-04-26 09:46 | -14.22211 | 120.43032 | 34911 ft | 502 kts | 137° |
| 2026-04-26 09:46 | -14.27248 | 120.48030 | 34911 ft | 502 kts | 137° |
| 2026-04-26 09:47 | -14.32280 | 120.53027 | 34914 ft | 503 kts | 137° |
| 2026-04-26 09:47 | -14.37323 | 120.58040 | 34912 ft | 503 kts | 137° |
| 2026-04-26 09:48 | -14.42369 | 120.63059 | 34914 ft | 504 kts | 137° |
| 2026-04-26 09:48 | -14.47420 | 120.68084 | 34916 ft | 505 kts | 137° |
| 2026-04-26 09:49 | -14.52474 | 120.73118 | 34918 ft | 505 kts | 137° |
| 2026-04-26 09:49 | -14.57530 | 120.78157 | 34919 ft | 506 kts | 137° |
| 2026-04-26 09:50 | -14.62589 | 120.83203 | 34920 ft | 506 kts | 137° |
| 2026-04-26 09:50 | -14.67653 | 120.88257 | 34920 ft | 506 kts | 137° |
| 2026-04-26 09:51 | -14.72710 | 120.93306 | 34922 ft | 506 kts | 137° |
| 2026-04-26 09:51 | -14.77769 | 120.98362 | 34922 ft | 506 kts | 137° |
| 2026-04-26 09:52 | -14.82824 | 121.03417 | 34924 ft | 505 kts | 137° |
| 2026-04-26 09:52 | -14.90402 | 121.11001 | 34922 ft | 505 kts | 137° |
| 2026-04-26 09:53 | -14.95418 | 121.16026 | 34926 ft | 506 kts | 137° |
| 2026-04-26 09:53 | -15.00468 | 121.21087 | 34922 ft | 506 kts | 137° |
| 2026-04-26 09:54 | -15.05519 | 121.26153 | 34926 ft | 506 kts | 137° |
| 2026-04-26 09:54 | -15.10571 | 121.31224 | 34926 ft | 506 kts | 137° |
| 2026-04-26 09:55 | -15.15622 | 121.36299 | 34926 ft | 506 kts | 137° |
| 2026-04-26 09:55 | -15.20679 | 121.41381 | 34927 ft | 506 kts | 138° |
| 2026-04-26 09:56 | -15.25731 | 121.46463 | 34929 ft | 507 kts | 137° |
| 2026-04-26 09:56 | -15.30789 | 121.51554 | 34930 ft | 507 kts | 138° |
| 2026-04-26 09:57 | -15.35846 | 121.56648 | 34931 ft | 507 kts | 138° |
| 2026-04-26 09:57 | -15.40902 | 121.61745 | 34931 ft | 507 kts | 138° |
| 2026-04-26 09:58 | -15.45959 | 121.66846 | 34929 ft | 507 kts | 138° |
| 2026-04-26 09:58 | -15.51013 | 121.71948 | 34935 ft | 507 kts | 138° |
| 2026-04-26 09:59 | -15.56070 | 121.77057 | 34930 ft | 507 kts | 138° |
| 2026-04-26 09:59 | -15.61122 | 121.82163 | 34932 ft | 507 kts | 138° |
| 2026-04-26 10:00 | -15.66176 | 121.87277 | 34928 ft | 507 kts | 138° |
| 2026-04-26 10:00 | -15.71227 | 121.92390 | 34935 ft | 507 kts | 138° |
| 2026-04-26 10:01 | -15.76276 | 121.97506 | 34937 ft | 507 kts | 138° |
| 2026-04-26 10:01 | -15.81327 | 122.02627 | 34934 ft | 507 kts | 138° |
| 2026-04-26 10:02 | -15.86375 | 122.07749 | 34934 ft | 508 kts | 138° |
| 2026-04-26 10:02 | -15.91426 | 122.12878 | 34935 ft | 507 kts | 138° |
| 2026-04-26 10:03 | -15.96440 | 122.17973 | 34934 ft | 508 kts | 138° |
| 2026-04-26 10:03 | -16.01485 | 122.23103 | 34936 ft | 507 kts | 138° |
| 2026-04-26 10:04 | -16.06528 | 122.28235 | 34934 ft | 507 kts | 138° |
| 2026-04-26 10:04 | -16.11567 | 122.33367 | 34934 ft | 507 kts | 138° |
| 2026-04-26 10:05 | -16.16603 | 122.38500 | 34934 ft | 507 kts | 138° |
| 2026-04-26 10:05 | -16.21642 | 122.43639 | 34933 ft | 507 kts | 138° |
| 2026-04-26 10:06 | -16.26675 | 122.48777 | 34935 ft | 507 kts | 138° |
| 2026-04-26 10:06 | -16.31706 | 122.53915 | 34936 ft | 507 kts | 138° |
| 2026-04-26 10:07 | -16.36741 | 122.59062 | 34933 ft | 507 kts | 138° |
| 2026-04-26 10:07 | -16.41771 | 122.64209 | 34932 ft | 507 kts | 138° |
| 2026-04-26 10:08 | -16.46806 | 122.69364 | 34931 ft | 507 kts | 138° |
| 2026-04-26 10:08 | -16.51833 | 122.74515 | 34929 ft | 507 kts | 138° |
| 2026-04-26 10:09 | -16.56832 | 122.79641 | 34927 ft | 507 kts | 138° |
| 2026-04-26 10:09 | -16.61853 | 122.84794 | 34928 ft | 507 kts | 138° |
| 2026-04-26 10:10 | -16.66887 | 122.89963 | 34929 ft | 507 kts | 138° |
| 2026-04-26 10:10 | -16.71910 | 122.95127 | 34929 ft | 507 kts | 138° |
| 2026-04-26 10:11 | -16.76930 | 123.00290 | 34928 ft | 507 kts | 138° |
| 2026-04-26 10:11 | -16.81949 | 123.05457 | 34930 ft | 507 kts | 138° |
| 2026-04-26 10:12 | -16.86969 | 123.10629 | 34928 ft | 507 kts | 138° |
| 2026-04-26 10:12 | -16.91984 | 123.15800 | 34928 ft | 507 kts | 138° |
| 2026-04-26 10:13 | -16.97003 | 123.20978 | 34925 ft | 507 kts | 138° |
| 2026-04-26 10:13 | -17.02023 | 123.26162 | 34927 ft | 507 kts | 138° |
| 2026-04-26 10:14 | -17.07039 | 123.31348 | 34926 ft | 507 kts | 138° |
| 2026-04-26 10:14 | -17.12060 | 123.36540 | 34926 ft | 508 kts | 138° |
| 2026-04-26 10:15 | -17.17077 | 123.41735 | 34922 ft | 508 kts | 138° |
| 2026-04-26 10:15 | -17.22100 | 123.46938 | 34925 ft | 508 kts | 138° |
| 2026-04-26 10:16 | -17.27088 | 123.52110 | 34922 ft | 508 kts | 138° |
| 2026-04-26 10:16 | -17.32114 | 123.57326 | 34922 ft | 509 kts | 138° |
| 2026-04-26 10:17 | -17.37136 | 123.62542 | 34926 ft | 509 kts | 138° |
| 2026-04-26 10:17 | -17.42159 | 123.67763 | 34934 ft | 509 kts | 138° |
| 2026-04-26 10:18 | -17.47180 | 123.72987 | 34937 ft | 509 kts | 138° |
| 2026-04-26 10:18 | -17.52199 | 123.78214 | 34941 ft | 509 kts | 138° |
| 2026-04-26 10:19 | -17.57216 | 123.83447 | 34939 ft | 509 kts | 137° |
| 2026-04-26 10:19 | -17.61739 | 123.89192 | 34944 ft | 513 kts | 128° |
| 2026-04-26 10:20 | -17.65127 | 123.94291 | 34940 ft | 513 kts | 127° |
| 2026-04-26 10:20 | -17.69876 | 124.01494 | 34936 ft | 514 kts | 127° |
| 2026-04-26 10:21 | -17.73970 | 124.07637 | 34935 ft | 514 kts | 127° |
| 2026-04-26 10:21 | -17.78082 | 124.13772 | 34935 ft | 514 kts | 128° |
| 2026-04-26 10:22 | -17.82202 | 124.19916 | 34936 ft | 515 kts | 127° |
| 2026-04-26 10:22 | -17.86320 | 124.26068 | 34933 ft | 515 kts | 127° |
| 2026-04-26 10:23 | -17.90433 | 124.32222 | 34941 ft | 515 kts | 127° |
| 2026-04-26 10:23 | -17.94552 | 124.38390 | 34938 ft | 516 kts | 127° |
| 2026-04-26 10:24 | -17.98668 | 124.44559 | 34941 ft | 516 kts | 127° |
| 2026-04-26 10:24 | -18.02756 | 124.50693 | 34943 ft | 516 kts | 127° |
| 2026-04-26 10:25 | -18.06873 | 124.56875 | 34941 ft | 516 kts | 127° |
| 2026-04-26 10:25 | -18.10989 | 124.63061 | 34948 ft | 517 kts | 127° |
| 2026-04-26 10:26 | -18.15108 | 124.69259 | 34949 ft | 517 kts | 127° |
| 2026-04-26 10:26 | -18.19221 | 124.75454 | 34948 ft | 517 kts | 127° |
| 2026-04-26 10:27 | -18.23338 | 124.81660 | 34945 ft | 517 kts | 127° |
| 2026-04-26 10:27 | -18.27455 | 124.87872 | 34951 ft | 518 kts | 127° |
| 2026-04-26 10:28 | -18.31576 | 124.94096 | 34956 ft | 518 kts | 127° |
| 2026-04-26 10:28 | -18.35692 | 125.00317 | 34955 ft | 518 kts | 127° |
| 2026-04-26 10:29 | -18.39812 | 125.06553 | 34955 ft | 519 kts | 127° |
| 2026-04-26 10:29 | -18.43928 | 125.12787 | 34959 ft | 519 kts | 127° |
| 2026-04-26 10:30 | -18.48050 | 125.19036 | 34961 ft | 519 kts | 127° |
| 2026-04-26 10:30 | -18.52166 | 125.25283 | 34964 ft | 519 kts | 127° |
| 2026-04-26 10:31 | -18.56285 | 125.31540 | 34959 ft | 520 kts | 127° |
| 2026-04-26 10:31 | -18.60402 | 125.37802 | 34966 ft | 520 kts | 127° |
| 2026-04-26 10:32 | -18.63825 | 125.43011 | 34967 ft | 520 kts | 127° |
| 2026-04-26 10:32 | -18.68639 | 125.50347 | 34965 ft | 520 kts | 127° |
| 2026-04-26 10:33 | -18.72060 | 125.55564 | 34967 ft | 520 kts | 127° |
| 2026-04-26 10:33 | -18.76180 | 125.61851 | 34968 ft | 521 kts | 127° |
| 2026-04-26 10:34 | -18.80293 | 125.68136 | 34971 ft | 521 kts | 127° |
| 2026-04-26 10:34 | -18.84406 | 125.74428 | 34975 ft | 521 kts | 127° |
| 2026-04-26 10:35 | -18.88522 | 125.80729 | 34975 ft | 521 kts | 127° |
| 2026-04-26 10:35 | -18.92635 | 125.87034 | 34975 ft | 521 kts | 127° |
| 2026-04-26 10:36 | -18.96744 | 125.93337 | 34978 ft | 521 kts | 127° |
| 2026-04-26 10:36 | -19.00855 | 125.99650 | 34976 ft | 521 kts | 127° |
| 2026-04-26 10:37 | -19.04966 | 126.05970 | 34981 ft | 522 kts | 127° |
| 2026-04-26 10:37 | -19.09076 | 126.12294 | 34982 ft | 522 kts | 127° |
| 2026-04-26 10:38 | -19.13183 | 126.18621 | 34988 ft | 522 kts | 127° |
| 2026-04-26 10:38 | -19.17287 | 126.24949 | 34991 ft | 522 kts | 127° |
| 2026-04-26 10:39 | -19.21393 | 126.31287 | 34990 ft | 522 kts | 127° |
| 2026-04-26 10:39 | -19.25466 | 126.37582 | 34994 ft | 522 kts | 127° |
| 2026-04-26 10:40 | -19.29566 | 126.43924 | 34993 ft | 522 kts | 127° |
| 2026-04-26 10:40 | -19.33665 | 126.50272 | 34998 ft | 522 kts | 127° |
| 2026-04-26 10:41 | -19.37765 | 126.56627 | 35001 ft | 522 kts | 127° |
| 2026-04-26 10:41 | -19.41862 | 126.62985 | 35001 ft | 523 kts | 127° |
| 2026-04-26 10:42 | -19.45955 | 126.69345 | 35005 ft | 523 kts | 127° |
| 2026-04-26 10:42 | -19.50045 | 126.75716 | 35009 ft | 523 kts | 127° |
| 2026-04-26 10:43 | -19.54132 | 126.82091 | 35008 ft | 523 kts | 127° |
| 2026-04-26 10:43 | -19.58217 | 126.88470 | 35012 ft | 523 kts | 127° |
| 2026-04-26 10:44 | -19.62304 | 126.94859 | 35012 ft | 523 kts | 127° |
| 2026-04-26 10:44 | -19.66387 | 127.01247 | 35014 ft | 523 kts | 127° |
| 2026-04-26 10:45 | -19.70471 | 127.07643 | 35014 ft | 524 kts | 128° |
| 2026-04-26 10:45 | -19.74555 | 127.14047 | 35017 ft | 524 kts | 127° |
| 2026-04-26 10:46 | -19.78638 | 127.20456 | 35015 ft | 524 kts | 128° |
| 2026-04-26 10:46 | -19.82697 | 127.26833 | 35018 ft | 525 kts | 128° |
| 2026-04-26 10:47 | -19.86782 | 127.33259 | 35023 ft | 525 kts | 127° |
| 2026-04-26 10:47 | -19.90867 | 127.39692 | 35023 ft | 525 kts | 128° |
| 2026-04-26 10:48 | -19.94956 | 127.46137 | 35022 ft | 526 kts | 128° |
| 2026-04-26 10:48 | -19.99044 | 127.52590 | 35020 ft | 526 kts | 128° |
| 2026-04-26 10:49 | -20.03132 | 127.59048 | 35024 ft | 527 kts | 128° |
| 2026-04-26 10:49 | -20.07222 | 127.65516 | 35027 ft | 527 kts | 128° |
| 2026-04-26 10:50 | -20.10622 | 127.70899 | 35032 ft | 527 kts | 128° |
| 2026-04-26 10:50 | -20.15403 | 127.78478 | 35044 ft | 529 kts | 128° |
| 2026-04-26 10:51 | -20.17456 | 127.81733 | 35281 ft | 530 kts | 127° |
| 2026-04-26 10:51 | -20.21544 | 127.88225 | 36032 ft | 526 kts | 128° |
| 2026-04-26 10:51 | -20.23560 | 127.91435 | 36750 ft | 515 kts | 129° |
| 2026-04-26 10:52 | -20.25543 | 127.94596 | 37066 ft | 514 kts | 129° |
| 2026-04-26 10:52 | -20.29511 | 128.00905 | 37033 ft | 510 kts | 129° |
| 2026-04-26 10:53 | -20.33433 | 128.07150 | 37056 ft | 505 kts | 129° |
| 2026-04-26 10:53 | -20.37330 | 128.13360 | 37037 ft | 504 kts | 129° |
| 2026-04-26 10:54 | -20.43133 | 128.22622 | 37046 ft | 504 kts | 129° |
| 2026-04-26 10:54 | -20.47026 | 128.28844 | 37050 ft | 504 kts | 129° |
| 2026-04-26 10:55 | -20.50919 | 128.35074 | 37053 ft | 505 kts | 129° |
| 2026-04-26 10:55 | -20.54818 | 128.41322 | 37053 ft | 506 kts | 129° |
| 2026-04-26 10:56 | -20.58720 | 128.47583 | 37051 ft | 507 kts | 129° |
| 2026-04-26 10:56 | -20.62622 | 128.53848 | 37053 ft | 507 kts | 129° |
| 2026-04-26 10:57 | -20.66523 | 128.60121 | 37050 ft | 507 kts | 129° |
| 2026-04-26 10:57 | -20.70418 | 128.66390 | 37054 ft | 506 kts | 129° |
| 2026-04-26 10:58 | -20.74310 | 128.72659 | 37053 ft | 506 kts | 129° |
| 2026-04-26 10:58 | -20.78198 | 128.78931 | 37055 ft | 506 kts | 129° |
| 2026-04-26 10:59 | -20.82081 | 128.85200 | 37056 ft | 506 kts | 129° |
| 2026-04-26 10:59 | -20.85965 | 128.91478 | 37054 ft | 506 kts | 129° |
| 2026-04-26 11:00 | -20.89851 | 128.97765 | 37051 ft | 507 kts | 129° |
| 2026-04-26 11:00 | -20.93736 | 129.04059 | 37060 ft | 507 kts | 129° |
| 2026-04-26 11:01 | -20.97623 | 129.10363 | 37066 ft | 508 kts | 129° |
| 2026-04-26 11:01 | -21.01486 | 129.16635 | 37056 ft | 508 kts | 129° |
| 2026-04-26 11:02 | -21.05376 | 129.22957 | 37058 ft | 509 kts | 130° |
| 2026-04-26 11:02 | -21.09267 | 129.29289 | 37061 ft | 509 kts | 130° |
| 2026-04-26 11:03 | -21.13158 | 129.35629 | 37065 ft | 509 kts | 130° |
| 2026-04-26 11:03 | -21.17045 | 129.41968 | 37058 ft | 509 kts | 130° |
| 2026-04-26 11:04 | -21.20926 | 129.48306 | 37066 ft | 509 kts | 130° |
| 2026-04-26 11:04 | -21.24805 | 129.54646 | 37064 ft | 508 kts | 130° |
| 2026-04-26 11:05 | -21.28676 | 129.60982 | 37061 ft | 508 kts | 130° |
| 2026-04-26 11:05 | -21.32540 | 129.67312 | 37067 ft | 507 kts | 130° |
| 2026-04-26 11:06 | -21.35773 | 129.72616 | 37068 ft | 507 kts | 130° |
| 2026-04-26 11:06 | -21.40251 | 129.79968 | 37067 ft | 506 kts | 130° |
| 2026-04-26 11:07 | -21.44099 | 129.86294 | 37068 ft | 506 kts | 130° |
| 2026-04-26 11:07 | -21.47942 | 129.92618 | 37073 ft | 506 kts | 130° |
| 2026-04-26 11:08 | -21.51781 | 129.98944 | 37072 ft | 505 kts | 130° |
| 2026-04-26 11:08 | -21.55613 | 130.05266 | 37073 ft | 505 kts | 130° |
| 2026-04-26 11:09 | -21.59439 | 130.11584 | 37082 ft | 504 kts | 130° |
| 2026-04-26 11:09 | -21.63264 | 130.17910 | 37079 ft | 504 kts | 130° |
| 2026-04-26 11:10 | -21.67080 | 130.24226 | 37078 ft | 504 kts | 130° |
| 2026-04-26 11:10 | -21.70892 | 130.30545 | 37089 ft | 504 kts | 130° |
| 2026-04-26 11:11 | -21.74703 | 130.36867 | 37089 ft | 503 kts | 130° |
| 2026-04-26 11:11 | -21.78507 | 130.43187 | 37087 ft | 503 kts | 130° |
| 2026-04-26 11:12 | -21.82281 | 130.49463 | 37088 ft | 503 kts | 130° |
| 2026-04-26 11:12 | -21.86079 | 130.55789 | 37096 ft | 503 kts | 130° |
| 2026-04-26 11:13 | -21.89870 | 130.62108 | 37096 ft | 503 kts | 131° |
| 2026-04-26 11:13 | -21.93660 | 130.68433 | 37100 ft | 502 kts | 131° |
| 2026-04-26 11:14 | -21.97448 | 130.74755 | 37101 ft | 502 kts | 131° |
| 2026-04-26 11:14 | -22.00596 | 130.80016 | 37111 ft | 502 kts | 131° |
| 2026-04-26 11:15 | -22.05015 | 130.87411 | 37112 ft | 502 kts | 131° |
| 2026-04-26 11:15 | -22.08789 | 130.93738 | 37108 ft | 502 kts | 131° |
| 2026-04-26 11:16 | -22.12558 | 131.00063 | 37116 ft | 501 kts | 131° |
| 2026-04-26 11:16 | -22.16321 | 131.06384 | 37116 ft | 501 kts | 131° |
| 2026-04-26 11:17 | -22.20078 | 131.12703 | 37119 ft | 500 kts | 131° |
| 2026-04-26 11:17 | -22.23829 | 131.19020 | 37126 ft | 499 kts | 131° |
| 2026-04-26 11:18 | -22.27547 | 131.25287 | 37119 ft | 499 kts | 131° |
| 2026-04-26 11:18 | -22.31288 | 131.31601 | 37120 ft | 499 kts | 131° |
| 2026-04-26 11:19 | -22.35028 | 131.37920 | 37122 ft | 499 kts | 131° |
| 2026-04-26 11:19 | -22.38759 | 131.44233 | 37127 ft | 498 kts | 131° |
| 2026-04-26 11:20 | -22.41855 | 131.49478 | 37131 ft | 498 kts | 131° |
| 2026-04-26 11:20 | -22.46199 | 131.56846 | 37128 ft | 497 kts | 131° |
| 2026-04-26 11:21 | -22.49907 | 131.63141 | 37133 ft | 496 kts | 131° |
| 2026-04-26 11:21 | -22.53610 | 131.69437 | 37134 ft | 495 kts | 131° |
| 2026-04-26 11:22 | -22.56677 | 131.74657 | 37132 ft | 494 kts | 131° |
| 2026-04-26 11:22 | -22.60361 | 131.80933 | 37139 ft | 493 kts | 131° |
| 2026-04-26 11:23 | -22.64033 | 131.87197 | 37137 ft | 493 kts | 132° |
| 2026-04-26 11:23 | -22.67698 | 131.93456 | 37134 ft | 492 kts | 132° |
| 2026-04-26 11:24 | -22.71356 | 131.99710 | 37145 ft | 491 kts | 132° |
| 2026-04-26 11:24 | -22.75004 | 132.05955 | 37140 ft | 490 kts | 132° |
| 2026-04-26 11:25 | -22.78646 | 132.12197 | 37142 ft | 490 kts | 132° |
| 2026-04-26 11:25 | -22.82282 | 132.18435 | 37141 ft | 489 kts | 132° |
| 2026-04-26 11:26 | -22.85912 | 132.24671 | 37146 ft | 489 kts | 132° |
| 2026-04-26 11:26 | -22.89536 | 132.30905 | 37137 ft | 489 kts | 132° |
| 2026-04-26 11:27 | -22.93159 | 132.37143 | 37142 ft | 489 kts | 132° |
| 2026-04-26 11:27 | -22.96754 | 132.43342 | 37149 ft | 489 kts | 132° |
| 2026-04-26 11:28 | -23.00372 | 132.49588 | 37145 ft | 489 kts | 132° |
| 2026-04-26 11:28 | -23.03987 | 132.55837 | 37149 ft | 489 kts | 132° |
| 2026-04-26 11:29 | -23.07602 | 132.62092 | 37154 ft | 489 kts | 132° |
| 2026-04-26 11:29 | -23.11214 | 132.68351 | 37152 ft | 489 kts | 131° |
| 2026-04-26 11:30 | -23.14238 | 132.73595 | 37152 ft | 489 kts | 131° |
| 2026-04-26 11:30 | -23.18433 | 132.80882 | 37150 ft | 489 kts | 131° |
| 2026-04-26 11:31 | -23.22041 | 132.87156 | 37152 ft | 489 kts | 131° |
| 2026-04-26 11:31 | -23.25646 | 132.93434 | 37150 ft | 490 kts | 131° |
| 2026-04-26 11:32 | -23.29254 | 132.99723 | 37155 ft | 490 kts | 131° |
| 2026-04-26 11:32 | -23.32861 | 133.06019 | 37159 ft | 490 kts | 130° |
| 2026-04-26 11:33 | -23.36468 | 133.12323 | 37156 ft | 491 kts | 130° |
| 2026-04-26 11:33 | -23.40075 | 133.18635 | 37164 ft | 491 kts | 130° |
| 2026-04-26 11:34 | -23.43684 | 133.24958 | 37161 ft | 491 kts | 130° |
| 2026-04-26 11:34 | -23.47286 | 133.31279 | 37164 ft | 492 kts | 129° |
| 2026-04-26 11:35 | -23.50868 | 133.37569 | 37165 ft | 492 kts | 129° |
| 2026-04-26 11:35 | -23.54494 | 133.43946 | 37168 ft | 492 kts | 129° |
| 2026-04-26 11:36 | -23.58067 | 133.50239 | 37168 ft | 492 kts | 129° |
| 2026-04-26 11:36 | -23.61665 | 133.56584 | 37175 ft | 492 kts | 128° |
| 2026-04-26 11:37 | -23.65262 | 133.62933 | 37173 ft | 492 kts | 128° |
| 2026-04-26 11:37 | -23.68856 | 133.69287 | 37179 ft | 492 kts | 128° |
| 2026-04-26 11:38 | -23.72448 | 133.75646 | 37182 ft | 492 kts | 127° |
| 2026-04-26 11:38 | -23.76037 | 133.82006 | 37184 ft | 492 kts | 127° |
| 2026-04-26 11:39 | -23.79688 | 133.88310 | 37192 ft | 488 kts | 131° |
| 2026-04-26 11:39 | -23.83924 | 133.94041 | 37193 ft | 484 kts | 135° |
| 2026-04-26 11:40 | -23.88269 | 133.99650 | 37183 ft | 484 kts | 135° |
| 2026-04-26 11:40 | -23.92601 | 134.05282 | 37178 ft | 484 kts | 134° |
| 2026-04-26 11:42 | -24.09777 | 134.27944 | 37163 ft | 485 kts | 133° |
| 2026-04-26 11:43 | -24.14080 | 134.33639 | 37167 ft | 485 kts | 133° |
| 2026-04-26 11:43 | -24.18383 | 134.39342 | 37162 ft | 486 kts | 133° |
| 2026-04-26 11:44 | -24.22685 | 134.45050 | 37146 ft | 486 kts | 133° |
| 2026-04-26 11:44 | -24.26980 | 134.50756 | 37150 ft | 486 kts | 132° |
| 2026-04-26 11:45 | -24.31275 | 134.56468 | 37163 ft | 485 kts | 132° |
| 2026-04-26 11:45 | -24.35565 | 134.62180 | 37167 ft | 485 kts | 132° |
| 2026-04-26 11:46 | -24.39852 | 134.67895 | 37153 ft | 485 kts | 132° |
| 2026-04-26 11:46 | -24.44131 | 134.73605 | 37153 ft | 484 kts | 132° |
| 2026-04-26 11:47 | -24.48407 | 134.79318 | 37154 ft | 484 kts | 132° |
| 2026-04-26 11:47 | -24.52674 | 134.85027 | 37150 ft | 483 kts | 132° |
| 2026-04-26 11:48 | -24.56935 | 134.90733 | 37159 ft | 483 kts | 132° |
| 2026-04-26 11:48 | -24.61195 | 134.96446 | 37154 ft | 483 kts | 132° |
| 2026-04-26 11:49 | -24.65443 | 135.02149 | 37156 ft | 482 kts | 132° |
| 2026-04-26 11:49 | -24.69689 | 135.07855 | 37153 ft | 482 kts | 132° |
| 2026-04-26 11:50 | -24.73926 | 135.13556 | 37155 ft | 481 kts | 132° |
| 2026-04-26 11:50 | -24.78156 | 135.19257 | 37151 ft | 481 kts | 132° |
| 2026-04-26 11:51 | -24.82355 | 135.24921 | 37154 ft | 480 kts | 132° |
| 2026-04-26 11:51 | -24.86577 | 135.30623 | 37149 ft | 480 kts | 132° |
| 2026-04-26 11:52 | -24.90110 | 135.35399 | 37151 ft | 480 kts | 131° |
| 2026-04-26 11:52 | -24.95008 | 135.42028 | 37153 ft | 480 kts | 131° |
| 2026-04-26 11:53 | -24.99217 | 135.47733 | 37154 ft | 480 kts | 131° |
| 2026-04-26 11:54 | -25.05524 | 135.56294 | 37152 ft | 479 kts | 131° |
| 2026-04-26 11:54 | -25.09728 | 135.62010 | 37155 ft | 479 kts | 131° |
| 2026-04-26 11:55 | -25.13927 | 135.67724 | 37151 ft | 479 kts | 131° |
| 2026-04-26 11:55 | -25.18121 | 135.73440 | 37151 ft | 479 kts | 131° |
| 2026-04-26 11:56 | -25.22313 | 135.79160 | 37152 ft | 479 kts | 131° |
| 2026-04-26 11:56 | -25.26478 | 135.84849 | 37152 ft | 479 kts | 131° |
| 2026-04-26 11:57 | -25.30666 | 135.90577 | 37147 ft | 479 kts | 131° |
| 2026-04-26 11:57 | -25.34851 | 135.96308 | 37149 ft | 479 kts | 131° |
| 2026-04-26 11:58 | -25.39035 | 136.02044 | 37150 ft | 479 kts | 131° |
| 2026-04-26 11:58 | -25.43217 | 136.07784 | 37151 ft | 479 kts | 131° |
| 2026-04-26 11:59 | -25.47394 | 136.13526 | 37146 ft | 479 kts | 131° |
| 2026-04-26 11:59 | -25.51565 | 136.19266 | 37148 ft | 479 kts | 131° |
| 2026-04-26 12:00 | -25.55736 | 136.25012 | 37148 ft | 478 kts | 131° |
| 2026-04-26 12:00 | -25.59899 | 136.30756 | 37143 ft | 478 kts | 131° |
| 2026-04-26 12:01 | -25.64060 | 136.36503 | 37150 ft | 478 kts | 131° |
| 2026-04-26 12:01 | -25.68216 | 136.42251 | 37147 ft | 478 kts | 131° |
| 2026-04-26 12:02 | -25.72367 | 136.47999 | 37145 ft | 478 kts | 131° |
| 2026-04-26 12:02 | -25.76514 | 136.53748 | 37147 ft | 477 kts | 131° |
| 2026-04-26 12:03 | -25.80660 | 136.59504 | 37145 ft | 477 kts | 131° |
| 2026-04-26 12:03 | -25.84800 | 136.65260 | 37149 ft | 477 kts | 131° |
| 2026-04-26 12:04 | -25.88936 | 136.71015 | 37142 ft | 477 kts | 131° |
| 2026-04-26 12:04 | -25.93067 | 136.76769 | 37144 ft | 476 kts | 131° |
| 2026-04-26 12:05 | -25.97193 | 136.82526 | 37148 ft | 476 kts | 131° |
| 2026-04-26 12:05 | -26.01284 | 136.88243 | 37129 ft | 475 kts | 131° |
| 2026-04-26 12:06 | -26.05396 | 136.93996 | 37148 ft | 475 kts | 131° |
| 2026-04-26 12:06 | -26.09505 | 136.99752 | 37147 ft | 475 kts | 132° |
| 2026-04-26 12:07 | -26.13604 | 137.05501 | 37135 ft | 474 kts | 132° |
| 2026-04-26 12:07 | -26.17702 | 137.11257 | 37134 ft | 474 kts | 132° |
| 2026-04-26 12:08 | -26.21797 | 137.17015 | 37159 ft | 474 kts | 132° |
| 2026-04-26 12:08 | -26.25883 | 137.22768 | 37142 ft | 473 kts | 132° |
| 2026-04-26 12:09 | -26.29966 | 137.28524 | 37142 ft | 473 kts | 132° |
| 2026-04-26 12:09 | -26.34044 | 137.34281 | 37144 ft | 473 kts | 132° |
| 2026-04-26 12:10 | -26.38119 | 137.40040 | 37145 ft | 473 kts | 132° |
| 2026-04-26 12:10 | -26.42190 | 137.45801 | 37143 ft | 472 kts | 132° |
| 2026-04-26 12:11 | -26.46251 | 137.51556 | 37144 ft | 472 kts | 132° |
| 2026-04-26 12:11 | -26.50312 | 137.57316 | 37143 ft | 472 kts | 132° |
| 2026-04-26 12:12 | -26.54364 | 137.63073 | 37150 ft | 471 kts | 132° |
| 2026-04-26 12:12 | -26.58414 | 137.68834 | 37147 ft | 471 kts | 132° |
| 2026-04-26 12:13 | -26.61774 | 137.73619 | 37148 ft | 471 kts | 132° |
| 2026-04-26 12:13 | -26.65814 | 137.79379 | 37145 ft | 471 kts | 132° |
| 2026-04-26 12:14 | -26.69852 | 137.85143 | 37144 ft | 470 kts | 132° |
| 2026-04-26 12:14 | -26.73881 | 137.90903 | 37146 ft | 470 kts | 132° |
| 2026-04-26 12:15 | -26.77904 | 137.96661 | 37145 ft | 469 kts | 133° |
| 2026-04-26 12:15 | -26.81922 | 138.02420 | 37150 ft | 469 kts | 133° |
| 2026-04-26 12:16 | -26.85931 | 138.08174 | 37147 ft | 468 kts | 133° |
| 2026-04-26 12:16 | -26.89936 | 138.13928 | 37141 ft | 468 kts | 133° |
| 2026-04-26 12:17 | -26.93935 | 138.19680 | 37145 ft | 468 kts | 133° |
| 2026-04-26 12:17 | -26.97930 | 138.25433 | 37146 ft | 467 kts | 133° |
| 2026-04-26 12:18 | -27.01918 | 138.31185 | 37145 ft | 467 kts | 133° |
| 2026-04-26 12:18 | -27.05901 | 138.36938 | 37144 ft | 467 kts | 133° |
| 2026-04-26 12:19 | -27.09878 | 138.42690 | 37146 ft | 466 kts | 133° |
| 2026-04-26 12:19 | -27.13849 | 138.48441 | 37147 ft | 466 kts | 133° |
| 2026-04-26 12:20 | -27.17813 | 138.54189 | 37147 ft | 465 kts | 133° |
| 2026-04-26 12:20 | -27.21772 | 138.59937 | 37152 ft | 465 kts | 133° |
| 2026-04-26 12:21 | -27.25699 | 138.65646 | 37158 ft | 465 kts | 133° |
| 2026-04-26 12:21 | -27.29647 | 138.71394 | 37155 ft | 464 kts | 133° |
| 2026-04-26 12:22 | -27.33592 | 138.77143 | 37149 ft | 464 kts | 133° |
| 2026-04-26 12:22 | -27.37533 | 138.82896 | 37152 ft | 464 kts | 134° |
| 2026-04-26 12:23 | -27.41472 | 138.88652 | 37154 ft | 464 kts | 134° |
| 2026-04-26 12:23 | -27.45406 | 138.94409 | 37155 ft | 464 kts | 134° |
| 2026-04-26 12:24 | -27.49335 | 139.00167 | 37157 ft | 463 kts | 134° |
| 2026-04-26 12:24 | -27.53258 | 139.05923 | 37143 ft | 463 kts | 134° |
| 2026-04-26 12:25 | -27.59105 | 139.14517 | 37148 ft | 462 kts | 134° |
| 2026-04-26 12:25 | -27.63036 | 139.20303 | 37159 ft | 461 kts | 134° |
| 2026-04-26 12:26 | -27.66909 | 139.26012 | 37156 ft | 461 kts | 134° |
| 2026-04-26 12:26 | -27.70799 | 139.31753 | 37154 ft | 460 kts | 134° |
| 2026-04-26 12:27 | -27.74682 | 139.37492 | 37155 ft | 460 kts | 134° |
| 2026-04-26 12:27 | -27.78561 | 139.43232 | 37155 ft | 460 kts | 134° |
| 2026-04-26 12:28 | -27.82433 | 139.48969 | 37153 ft | 459 kts | 134° |
| 2026-04-26 12:28 | -27.86300 | 139.54708 | 37157 ft | 458 kts | 134° |
| 2026-04-26 12:29 | -27.90158 | 139.60441 | 37157 ft | 458 kts | 134° |
| 2026-04-26 12:30 | -27.95931 | 139.69032 | 37157 ft | 457 kts | 134° |
| 2026-04-26 12:30 | -27.99774 | 139.74761 | 37157 ft | 457 kts | 134° |
| 2026-04-26 12:31 | -28.05528 | 139.83353 | 37155 ft | 456 kts | 134° |
| 2026-04-26 12:31 | -28.09356 | 139.89078 | 37163 ft | 456 kts | 134° |
| 2026-04-26 12:32 | -28.13176 | 139.94799 | 37161 ft | 455 kts | 134° |
| 2026-04-26 12:33 | -28.18901 | 140.03387 | 37165 ft | 455 kts | 135° |
| 2026-04-26 12:33 | -28.22682 | 140.09070 | 37163 ft | 454 kts | 135° |
| 2026-04-26 12:34 | -28.26487 | 140.14794 | 37166 ft | 454 kts | 135° |
| 2026-04-26 12:34 | -28.30286 | 140.20518 | 37170 ft | 454 kts | 135° |
| 2026-04-26 12:35 | -28.34080 | 140.26242 | 37154 ft | 454 kts | 135° |
| 2026-04-26 12:35 | -28.37870 | 140.31968 | 37171 ft | 453 kts | 135° |
| 2026-04-26 12:36 | -28.41656 | 140.37695 | 37170 ft | 453 kts | 135° |
| 2026-04-26 12:36 | -28.45440 | 140.43428 | 37173 ft | 453 kts | 135° |
| 2026-04-26 12:37 | -28.49222 | 140.49164 | 37176 ft | 453 kts | 135° |
| 2026-04-26 12:37 | -28.53000 | 140.54902 | 37180 ft | 453 kts | 135° |
| 2026-04-26 12:38 | -28.56777 | 140.60648 | 37185 ft | 453 kts | 135° |
| 2026-04-26 12:38 | -28.60551 | 140.66396 | 37187 ft | 453 kts | 135° |
| 2026-04-26 12:39 | -28.64321 | 140.72145 | 37186 ft | 453 kts | 135° |
| 2026-04-26 12:39 | -28.68063 | 140.77862 | 37187 ft | 453 kts | 135° |
| 2026-04-26 12:40 | -28.71822 | 140.83611 | 37185 ft | 452 kts | 135° |
| 2026-04-26 12:40 | -28.75574 | 140.89356 | 37186 ft | 452 kts | 135° |
| 2026-04-26 12:41 | -28.79324 | 140.95106 | 37186 ft | 451 kts | 135° |
| 2026-04-26 12:41 | -28.83066 | 141.00853 | 37189 ft | 451 kts | 135° |
| 2026-04-26 12:42 | -28.86801 | 141.06596 | 37189 ft | 451 kts | 135° |
| 2026-04-26 12:42 | -28.90529 | 141.12337 | 37191 ft | 450 kts | 135° |
| 2026-04-26 12:43 | -28.94251 | 141.18075 | 37187 ft | 449 kts | 135° |
| 2026-04-26 12:43 | -28.97964 | 141.23809 | 37198 ft | 449 kts | 135° |
| 2026-04-26 12:44 | -29.01673 | 141.29543 | 37195 ft | 448 kts | 135° |
| 2026-04-26 12:44 | -29.05372 | 141.35271 | 37197 ft | 448 kts | 135° |
| 2026-04-26 12:45 | -29.09067 | 141.40999 | 37200 ft | 447 kts | 135° |
| 2026-04-26 12:45 | -29.12754 | 141.46724 | 37201 ft | 447 kts | 135° |
| 2026-04-26 12:46 | -29.16432 | 141.52441 | 37188 ft | 446 kts | 135° |
| 2026-04-26 12:46 | -29.20080 | 141.58121 | 37200 ft | 445 kts | 134° |
| 2026-04-26 12:47 | -29.23746 | 141.63836 | 37199 ft | 445 kts | 134° |
| 2026-04-26 12:47 | -29.27403 | 141.69545 | 37201 ft | 444 kts | 134° |
| 2026-04-26 12:48 | -29.31056 | 141.75255 | 37203 ft | 444 kts | 134° |
| 2026-04-26 12:48 | -29.34701 | 141.80962 | 37208 ft | 443 kts | 134° |
| 2026-04-26 12:49 | -29.38339 | 141.86663 | 37201 ft | 443 kts | 134° |
| 2026-04-26 12:49 | -29.41973 | 141.92369 | 37204 ft | 443 kts | 134° |
| 2026-04-26 12:50 | -29.45601 | 141.98071 | 37200 ft | 442 kts | 134° |
| 2026-04-26 12:50 | -29.49220 | 142.03769 | 37204 ft | 442 kts | 134° |
| 2026-04-26 12:51 | -29.52835 | 142.09467 | 37206 ft | 441 kts | 134° |
| 2026-04-26 12:51 | -29.56443 | 142.15161 | 37197 ft | 441 kts | 134° |
| 2026-04-26 12:52 | -29.60043 | 142.20852 | 37213 ft | 440 kts | 134° |
| 2026-04-26 12:52 | -29.63637 | 142.26542 | 37192 ft | 440 kts | 134° |
| 2026-04-26 12:53 | -29.67222 | 142.32224 | 37201 ft | 439 kts | 134° |
| 2026-04-26 12:53 | -29.70803 | 142.37908 | 37200 ft | 439 kts | 134° |
| 2026-04-26 12:54 | -29.74379 | 142.43593 | 37204 ft | 438 kts | 134° |
| 2026-04-26 12:54 | -29.77948 | 142.49274 | 37205 ft | 438 kts | 134° |
| 2026-04-26 12:55 | -29.81510 | 142.54951 | 37205 ft | 437 kts | 134° |
| 2026-04-26 12:55 | -29.85037 | 142.60583 | 37204 ft | 436 kts | 134° |
| 2026-04-26 12:56 | -29.88581 | 142.66247 | 37205 ft | 435 kts | 134° |
| 2026-04-26 12:56 | -29.92115 | 142.71900 | 37202 ft | 434 kts | 133° |
| 2026-04-26 12:57 | -29.95637 | 142.77537 | 37205 ft | 433 kts | 133° |
| 2026-04-26 12:57 | -29.99148 | 142.83166 | 37208 ft | 432 kts | 133° |
| 2026-04-26 12:58 | -30.04389 | 142.91585 | 37205 ft | 430 kts | 133° |
| 2026-04-26 12:58 | -30.07868 | 142.97182 | 37205 ft | 429 kts | 133° |
| 2026-04-26 12:59 | -30.11338 | 143.02773 | 37210 ft | 428 kts | 133° |
| 2026-04-26 12:59 | -30.14802 | 143.08362 | 37212 ft | 428 kts | 133° |
| 2026-04-26 13:00 | -30.18265 | 143.13957 | 37204 ft | 428 kts | 133° |
| 2026-04-26 13:00 | -30.21721 | 143.19559 | 37206 ft | 428 kts | 133° |
| 2026-04-26 13:01 | -30.25175 | 143.25169 | 37215 ft | 428 kts | 132° |
| 2026-04-26 13:01 | -30.28632 | 143.30792 | 37210 ft | 429 kts | 132° |
| 2026-04-26 13:02 | -30.32093 | 143.36430 | 37210 ft | 430 kts | 132° |
| 2026-04-26 13:02 | -30.35563 | 143.42090 | 37216 ft | 431 kts | 131° |
| 2026-04-26 13:03 | -30.38450 | 143.46805 | 37218 ft | 432 kts | 131° |
| 2026-04-26 13:03 | -30.41931 | 143.52498 | 37211 ft | 434 kts | 131° |
| 2026-04-26 13:04 | -30.45986 | 143.59139 | 37213 ft | 435 kts | 131° |
| 2026-04-26 13:04 | -30.48911 | 143.63937 | 37215 ft | 436 kts | 131° |
| 2026-04-26 13:05 | -30.52410 | 143.69683 | 37213 ft | 436 kts | 130° |
| 2026-04-26 13:05 | -30.55909 | 143.75440 | 37213 ft | 437 kts | 130° |
| 2026-04-26 13:06 | -30.59414 | 143.81213 | 37219 ft | 437 kts | 130° |
| 2026-04-26 13:06 | -30.62893 | 143.86953 | 37203 ft | 438 kts | 130° |
| 2026-04-26 13:07 | -30.66399 | 143.92744 | 37205 ft | 439 kts | 130° |
| 2026-04-26 13:07 | -30.69914 | 143.98558 | 37203 ft | 440 kts | 130° |
| 2026-04-26 13:08 | -30.73427 | 144.04379 | 37208 ft | 440 kts | 129° |
| 2026-04-26 13:08 | -30.76947 | 144.10220 | 37208 ft | 442 kts | 129° |
| 2026-04-26 13:09 | -30.80474 | 144.16080 | 37212 ft | 443 kts | 129° |
| 2026-04-26 13:09 | -30.84012 | 144.21967 | 37222 ft | 445 kts | 129° |
| 2026-04-26 13:10 | -30.87559 | 144.27879 | 37214 ft | 446 kts | 129° |
| 2026-04-26 13:10 | -30.91114 | 144.33813 | 37218 ft | 448 kts | 128° |
| 2026-04-26 13:11 | -30.94679 | 144.39773 | 37220 ft | 449 kts | 128° |
| 2026-04-26 13:11 | -30.98252 | 144.45755 | 37224 ft | 450 kts | 128° |
| 2026-04-26 13:12 | -31.01830 | 144.51754 | 37216 ft | 451 kts | 128° |
| 2026-04-26 13:12 | -31.05385 | 144.57725 | 37221 ft | 452 kts | 128° |
| 2026-04-26 13:13 | -31.08991 | 144.63790 | 37224 ft | 452 kts | 128° |
| 2026-04-26 13:13 | -31.12573 | 144.69823 | 37223 ft | 452 kts | 127° |
| 2026-04-26 13:14 | -31.16129 | 144.75823 | 37221 ft | 452 kts | 127° |
| 2026-04-26 13:14 | -31.19708 | 144.81870 | 37223 ft | 453 kts | 127° |
| 2026-04-26 13:15 | -31.23284 | 144.87922 | 37225 ft | 453 kts | 127° |
| 2026-04-26 13:15 | -31.26859 | 144.93981 | 37226 ft | 453 kts | 127° |
| 2026-04-26 13:16 | -31.30435 | 145.00052 | 37229 ft | 454 kts | 127° |
| 2026-04-26 13:16 | -31.34014 | 145.06136 | 37231 ft | 455 kts | 127° |
| 2026-04-26 13:17 | -31.39397 | 145.15306 | 37236 ft | 457 kts | 126° |
| 2026-04-26 13:18 | -31.44796 | 145.24525 | 37230 ft | 459 kts | 126° |
| 2026-04-26 13:19 | -31.50220 | 145.33810 | 37245 ft | 461 kts | 126° |
| 2026-04-26 13:19 | -31.53846 | 145.40028 | 37233 ft | 463 kts | 126° |
| 2026-04-26 13:20 | -31.57476 | 145.46264 | 37234 ft | 464 kts | 126° |
| 2026-04-26 13:20 | -31.61119 | 145.52532 | 37234 ft | 465 kts | 126° |
| 2026-04-26 13:21 | -31.64762 | 145.58811 | 37239 ft | 466 kts | 126° |
| 2026-04-26 13:21 | -31.68408 | 145.65105 | 37234 ft | 466 kts | 126° |
| 2026-04-26 13:22 | -31.72055 | 145.71411 | 37239 ft | 467 kts | 126° |
| 2026-04-26 13:22 | -31.75698 | 145.77721 | 37237 ft | 467 kts | 126° |
| 2026-04-26 13:23 | -31.79340 | 145.84038 | 37242 ft | 467 kts | 126° |
| 2026-04-26 13:23 | -31.82955 | 145.90319 | 37259 ft | 467 kts | 125° |
| 2026-04-26 13:24 | -31.86588 | 145.96642 | 37238 ft | 467 kts | 125° |
| 2026-04-26 13:24 | -31.90222 | 146.02978 | 37244 ft | 467 kts | 125° |
| 2026-04-26 13:25 | -31.93855 | 146.09322 | 37242 ft | 467 kts | 125° |
| 2026-04-26 13:25 | -31.97485 | 146.15671 | 37258 ft | 467 kts | 125° |
| 2026-04-26 13:26 | -32.01114 | 146.22030 | 37256 ft | 468 kts | 125° |
| 2026-04-26 13:26 | -32.04743 | 146.28399 | 37236 ft | 468 kts | 125° |
| 2026-04-26 13:27 | -32.08375 | 146.34783 | 37240 ft | 469 kts | 125° |
| 2026-04-26 13:27 | -32.12009 | 146.41182 | 37249 ft | 470 kts | 125° |
| 2026-04-26 13:28 | -32.15644 | 146.47594 | 37253 ft | 470 kts | 125° |
| 2026-04-26 13:28 | -32.19281 | 146.54019 | 37253 ft | 471 kts | 125° |
| 2026-04-26 13:29 | -32.22920 | 146.60460 | 37249 ft | 472 kts | 124° |
| 2026-04-26 13:29 | -32.26561 | 146.66915 | 37251 ft | 472 kts | 124° |
| 2026-04-26 13:30 | -32.30201 | 146.73378 | 37227 ft | 473 kts | 124° |
| 2026-04-26 13:30 | -32.33844 | 146.79860 | 37248 ft | 473 kts | 124° |
| 2026-04-26 13:31 | -32.37488 | 146.86352 | 37248 ft | 474 kts | 124° |
| 2026-04-26 13:31 | -32.41128 | 146.92850 | 37249 ft | 474 kts | 124° |
| 2026-04-26 13:32 | -32.44769 | 146.99360 | 37229 ft | 474 kts | 124° |
| 2026-04-26 13:32 | -32.48405 | 147.05873 | 37227 ft | 474 kts | 124° |
| 2026-04-26 13:33 | -32.52040 | 147.12396 | 37244 ft | 474 kts | 124° |
| 2026-04-26 13:33 | -32.55675 | 147.18929 | 37246 ft | 474 kts | 124° |
| 2026-04-26 13:34 | -32.59305 | 147.25465 | 37248 ft | 475 kts | 124° |
| 2026-04-26 13:34 | -32.62932 | 147.32006 | 37240 ft | 475 kts | 124° |
| 2026-04-26 13:35 | -32.66555 | 147.38554 | 37239 ft | 475 kts | 124° |
| 2026-04-26 13:35 | -32.70177 | 147.45109 | 37249 ft | 475 kts | 124° |
| 2026-04-26 13:36 | -32.73792 | 147.51663 | 37252 ft | 474 kts | 124° |
| 2026-04-26 13:36 | -32.77404 | 147.58225 | 37251 ft | 474 kts | 124° |
| 2026-04-26 13:37 | -32.80988 | 147.64745 | 37236 ft | 474 kts | 124° |
| 2026-04-26 13:37 | -32.84594 | 147.71319 | 37241 ft | 474 kts | 124° |
| 2026-04-26 13:38 | -32.88195 | 147.77894 | 37239 ft | 474 kts | 124° |
| 2026-04-26 13:38 | -32.91791 | 147.84472 | 37258 ft | 474 kts | 124° |
| 2026-04-26 13:39 | -32.95389 | 147.91066 | 37258 ft | 475 kts | 124° |
| 2026-04-26 13:39 | -32.98983 | 147.97664 | 37259 ft | 475 kts | 124° |
| 2026-04-26 13:40 | -33.02572 | 148.04265 | 37256 ft | 475 kts | 124° |
| 2026-04-26 13:40 | -33.06163 | 148.10881 | 37248 ft | 475 kts | 124° |
| 2026-04-26 13:41 | -33.09751 | 148.17505 | 37248 ft | 476 kts | 124° |
| 2026-04-26 13:41 | -33.13339 | 148.24135 | 37258 ft | 476 kts | 124° |
| 2026-04-26 13:42 | -33.17039 | 148.30682 | 37272 ft | 476 kts | 126° |
| 2026-04-26 13:42 | -33.20806 | 148.37186 | 37260 ft | 476 kts | 126° |
| 2026-04-26 13:43 | -33.24563 | 148.43707 | 37271 ft | 477 kts | 126° |
| 2026-04-26 13:43 | -33.28303 | 148.50249 | 37265 ft | 477 kts | 126° |
| 2026-04-26 13:44 | -33.32033 | 148.56799 | 37276 ft | 477 kts | 126° |
| 2026-04-26 13:44 | -33.35761 | 148.63357 | 37277 ft | 477 kts | 125° |
| 2026-04-26 13:45 | -33.39485 | 148.69918 | 37282 ft | 477 kts | 125° |
| 2026-04-26 13:45 | -33.43205 | 148.76482 | 37280 ft | 476 kts | 125° |
| 2026-04-26 13:46 | -33.46897 | 148.83009 | 37291 ft | 476 kts | 125° |
| 2026-04-26 13:46 | -33.50634 | 148.89627 | 37295 ft | 476 kts | 125° |
| 2026-04-26 13:47 | -33.54319 | 148.96165 | 37291 ft | 476 kts | 125° |
| 2026-04-26 13:47 | -33.58024 | 149.02750 | 37296 ft | 476 kts | 125° |
| 2026-04-26 13:48 | -33.61723 | 149.09336 | 37311 ft | 476 kts | 125° |
| 2026-04-26 13:48 | -33.65420 | 149.15930 | 37302 ft | 476 kts | 125° |
| 2026-04-26 13:49 | -33.69111 | 149.22525 | 37316 ft | 476 kts | 125° |
| 2026-04-26 13:49 | -33.72797 | 149.29125 | 37310 ft | 476 kts | 125° |
| 2026-04-26 13:49 | -33.74658 | 149.32461 | 36570 ft | 486 kts | 125° |
| 2026-04-26 13:50 | -33.76539 | 149.35835 | 35793 ft | 486 kts | 125° |
| 2026-04-26 13:50 | -33.78419 | 149.39213 | 34929 ft | 487 kts | 125° |
| 2026-04-26 13:50 | -33.80304 | 149.42602 | 34003 ft | 488 kts | 125° |
| 2026-04-26 13:50 | -33.82189 | 149.45994 | 32995 ft | 488 kts | 124° |
| 2026-04-26 13:51 | -33.84077 | 149.49394 | 31997 ft | 489 kts | 124° |
| 2026-04-26 13:51 | -33.85963 | 149.52793 | 31015 ft | 489 kts | 124° |
| 2026-04-26 13:51 | -33.87209 | 149.55043 | 30562 ft | 486 kts | 124° |
| 2026-04-26 13:51 | -33.89073 | 149.58408 | 29771 ft | 481 kts | 124° |
| 2026-04-26 13:52 | -33.90920 | 149.61740 | 29020 ft | 475 kts | 124° |
| 2026-04-26 13:52 | -33.92744 | 149.65029 | 28340 ft | 469 kts | 124° |
| 2026-04-26 13:52 | -33.94545 | 149.68277 | 27652 ft | 464 kts | 123° |
| 2026-04-26 13:52 | -33.96329 | 149.71496 | 26991 ft | 460 kts | 123° |
| 2026-04-26 13:53 | -33.98093 | 149.74684 | 26347 ft | 455 kts | 123° |
| 2026-04-26 13:53 | -33.99842 | 149.77848 | 25707 ft | 452 kts | 123° |
| 2026-04-26 13:53 | -34.01576 | 149.80990 | 25071 ft | 448 kts | 123° |
| 2026-04-26 13:53 | -34.03297 | 149.84110 | 24435 ft | 446 kts | 123° |
| 2026-04-26 13:54 | -34.05008 | 149.87214 | 23787 ft | 444 kts | 123° |
| 2026-04-26 13:54 | -34.06712 | 149.90309 | 23045 ft | 441 kts | 123° |
| 2026-04-26 13:54 | -34.08398 | 149.93374 | 22389 ft | 437 kts | 123° |
| 2026-04-26 13:55 | -34.11731 | 149.99441 | 21135 ft | 430 kts | 123° |
| 2026-04-26 13:55 | -34.12821 | 150.01426 | 20732 ft | 427 kts | 122° |
| 2026-04-26 13:55 | -34.16469 | 150.08418 | 19321 ft | 413 kts | 111° |
| 2026-04-26 13:56 | -34.17147 | 150.11752 | 18774 ft | 408 kts | 94° |
| 2026-04-26 13:56 | -34.17034 | 150.15147 | 18125 ft | 404 kts | 78° |
| 2026-04-26 13:56 | -34.16325 | 150.18386 | 17525 ft | 396 kts | 73° |
| 2026-04-26 13:56 | -34.15575 | 150.21525 | 16931 ft | 393 kts | 73° |
| 2026-04-26 13:57 | -34.14844 | 150.24696 | 16374 ft | 391 kts | 74° |
| 2026-04-26 13:57 | -34.14143 | 150.27853 | 15732 ft | 387 kts | 74° |
| 2026-04-26 13:57 | -34.13466 | 150.30937 | 15010 ft | 374 kts | 75° |
| 2026-04-26 13:57 | -34.12803 | 150.33976 | 14435 ft | 374 kts | 75° |
| 2026-04-26 13:58 | -34.12141 | 150.37010 | 13861 ft | 373 kts | 75° |
| 2026-04-26 13:58 | -34.11480 | 150.40037 | 13268 ft | 372 kts | 75° |
| 2026-04-26 13:58 | -34.10821 | 150.43050 | 12702 ft | 370 kts | 74° |
| 2026-04-26 13:58 | -34.10164 | 150.46044 | 12161 ft | 369 kts | 74° |
| 2026-04-26 13:59 | -34.09536 | 150.49034 | 11614 ft | 366 kts | 78° |
| 2026-04-26 13:59 | -34.09230 | 150.52078 | 11082 ft | 365 kts | 87° |
| 2026-04-26 13:59 | -34.09270 | 150.55099 | 10875 ft | 354 kts | 94° |
| 2026-04-26 14:00 | -34.10258 | 150.63501 | 10416 ft | 321 kts | 97° |
| 2026-04-26 14:00 | -34.10579 | 150.66123 | 10283 ft | 311 kts | 97° |
| 2026-04-26 14:00 | -34.10783 | 150.67813 | 10199 ft | 305 kts | 97° |
| 2026-04-26 14:01 | -34.11181 | 150.71133 | 10012 ft | 292 kts | 97° |
| 2026-04-26 14:01 | -34.11476 | 150.73532 | 9721 ft | 286 kts | 101° |
| 2026-04-26 14:01 | -34.12133 | 150.75775 | 9430 ft | 283 kts | 114° |
| 2026-04-26 14:01 | -34.13010 | 150.77864 | 9112 ft | 282 kts | 117° |
| 2026-04-26 14:02 | -34.13938 | 150.79971 | 8784 ft | 280 kts | 117° |
| 2026-04-26 14:02 | -34.14836 | 150.82008 | 8497 ft | 278 kts | 117° |
| 2026-04-26 14:02 | -34.15741 | 150.84065 | 8206 ft | 276 kts | 118° |
| 2026-04-26 14:02 | -34.16636 | 150.86107 | 7923 ft | 274 kts | 118° |
| 2026-04-26 14:03 | -34.17522 | 150.88140 | 7638 ft | 272 kts | 118° |
| 2026-04-26 14:03 | -34.18397 | 150.90159 | 7360 ft | 270 kts | 118° |
| 2026-04-26 14:03 | -34.19262 | 150.92163 | 7085 ft | 268 kts | 118° |
| 2026-04-26 14:03 | -34.20115 | 150.94148 | 6823 ft | 265 kts | 118° |
| 2026-04-26 14:04 | -34.20956 | 150.96115 | 6569 ft | 261 kts | 118° |
| 2026-04-26 14:04 | -34.21779 | 150.98051 | 6320 ft | 257 kts | 118° |
| 2026-04-26 14:04 | -34.22584 | 150.99959 | 6084 ft | 253 kts | 118° |
| 2026-04-26 14:04 | -34.23363 | 151.01815 | 5909 ft | 236 kts | 118° |
| 2026-04-26 14:05 | -34.24080 | 151.03538 | 5738 ft | 228 kts | 118° |
| 2026-04-26 14:05 | -34.24781 | 151.05232 | 5569 ft | 221 kts | 118° |
| 2026-04-26 14:05 | -34.25461 | 151.06882 | 5471 ft | 226 kts | 118° |
| 2026-04-26 14:05 | -34.26168 | 151.08598 | 5306 ft | 225 kts | 118° |
| 2026-04-26 14:06 | -34.26835 | 151.10238 | 5245 ft | 212 kts | 116° |
| 2026-04-26 14:06 | -34.27088 | 151.11935 | 5094 ft | 203 kts | 80° |
| 2026-04-26 14:06 | -34.26491 | 151.13514 | 5129 ft | 216 kts | 57° |
| 2026-04-26 14:06 | -34.25583 | 151.14970 | 5168 ft | 216 kts | 53° |
| 2026-04-26 14:07 | -34.24657 | 151.16389 | 5019 ft | 213 kts | 53° |
| 2026-04-26 14:07 | -34.23754 | 151.17747 | 4859 ft | 205 kts | 48° |
| 2026-04-26 14:07 | -34.22701 | 151.18864 | 4697 ft | 199 kts | 39° |
| 2026-04-26 14:07 | -34.21608 | 151.19884 | 4594 ft | 197 kts | 38° |
| 2026-04-26 14:08 | -34.20533 | 151.20885 | 4454 ft | 193 kts | 38° |
| 2026-04-26 14:08 | -34.19473 | 151.21875 | 4321 ft | 192 kts | 38° |
| 2026-04-26 14:08 | -34.18411 | 151.22841 | 4192 ft | 189 kts | 29° |
| 2026-04-26 14:08 | -34.17159 | 151.23166 | 4008 ft | 185 kts | 354° |
| 2026-04-26 14:09 | -34.15872 | 151.22999 | 3872 ft | 190 kts | 353° |
| 2026-04-26 14:09 | -34.14555 | 151.22758 | 3634 ft | 192 kts | 350° |
| 2026-04-26 14:09 | -34.13253 | 151.22448 | 3381 ft | 189 kts | 348° |
| 2026-04-26 14:09 | -34.12007 | 151.22129 | 3148 ft | 175 kts | 348° |
| 2026-04-26 14:10 | -34.10861 | 151.21830 | 2895 ft | 161 kts | 348° |
| 2026-04-26 14:10 | -34.09831 | 151.21560 | 2699 ft | 143 kts | 349° |
| 2026-04-26 14:10 | -34.08879 | 151.21311 | 2541 ft | 141 kts | 348° |
| 2026-04-26 14:10 | -34.07905 | 151.21057 | 2370 ft | 144 kts | 348° |
| 2026-04-26 14:11 | -34.05983 | 151.20555 | 1961 ft | 140 kts | 348° |
| 2026-04-26 14:11 | -34.05025 | 151.20306 | 1774 ft | 142 kts | 348° |
| 2026-04-26 14:11 | -34.04058 | 151.20053 | 1589 ft | 142 kts | 348° |
| 2026-04-26 14:12 | -34.03095 | 151.19802 | 1400 ft | 141 kts | 348° |
| 2026-04-26 14:12 | -34.02139 | 151.19552 | 1211 ft | 141 kts | 348° |
| 2026-04-26 14:12 | -34.01179 | 151.19303 | 1023 ft | 141 kts | 348° |
| 2026-04-26 14:12 | -34.00225 | 151.19054 | 828 ft | 141 kts | 347° |
| 2026-04-26 14:13 | -33.98263 | 151.18543 | 433 ft | 147 kts | 346° |
| 2026-04-26 14:13 | -33.97277 | 151.18285 | 251 ft | 143 kts | 346° |
| 2026-04-26 14:13 | -33.96307 | 151.18036 | 54 ft | 143 kts | 346° |
| 2026-04-26 14:14 | -33.95407 | 151.17799 | 34 ft | 117 kts | 347° |
| 2026-04-26 14:14 | -33.94731 | 151.17624 | 34 ft | 82 kts | 348° |
| 2026-04-26 14:14 | -33.94296 | 151.17512 | 35 ft | 46 kts | 348° |
| 2026-04-26 14:14 | -33.94046 | 151.17447 | 31 ft | 34 kts | 348° |
| 2026-04-26 14:15 | -33.93940 | 151.17397 | 31 ft | 7 kts | 293° |
| 2026-04-26 14:15 | -33.93944 | 151.17338 | 32 ft | 7 kts | 256° |
| 2026-04-26 14:15 | -33.93956 | 151.17284 | 33 ft | 7 kts | 254° |
| 2026-04-26 14:15 | -33.93968 | 151.17231 | 34 ft | 7 kts | 254° |
| 2026-04-26 14:16 | -33.93981 | 151.17178 | 34 ft | 7 kts | 253° |
| 2026-04-26 14:16 | -33.93994 | 151.17124 | 34 ft | 7 kts | 253° |
| 2026-04-26 14:16 | -33.94008 | 151.17065 | 34 ft | 8 kts | 254° |
| 2026-04-26 14:16 | -33.94023 | 151.17002 | 35 ft | 8 kts | 254° |
| 2026-04-26 14:17 | -33.94039 | 151.16933 | 35 ft | 9 kts | 254° |
| 2026-04-26 14:17 | -33.94057 | 151.16860 | 35 ft | 9 kts | 254° |
| 2026-04-26 14:17 | -33.94074 | 151.16786 | 35 ft | 9 kts | 254° |
| 2026-04-26 14:17 | -33.94090 | 151.16718 | 35 ft | 8 kts | 254° |
| 2026-04-26 14:18 | -33.94095 | 151.16663 | 35 ft | 6 kts | 293° |
| 2026-04-26 14:18 | -33.94056 | 151.16632 | 35 ft | 5 kts | 339° |
| 2026-04-26 14:18 | -33.94034 | 151.16623 | 35 ft | 2 kts | 343° |
| 2026-04-26 14:18 | -33.94030 | 151.16622 | 35 ft | 1 kts | 343° |
| 2026-04-26 14:19 | -33.94018 | 151.16618 | 35 ft | 2 kts | 343° |
| 2026-04-26 14:19 | -33.94015 | 151.16617 | 35 ft | 0 kts | 344° |